DS live
Datasport live:
to see all results live click here


(14) 125km Verbier Seniors 2

Grand Raid Verbier/Grimentz 2015 - (14) 125km Verbier Seniors 2

rang nom et prénom an lieu temps retard doss overall km/h ¦ - Nendaz ¦ - Hérémence ¦ - Mandelon ¦ - Evolène ¦Garmin Sprint ¦ - Eison ¦ - La Vieille ¦- Pas de Lona ¦ - Grimentz ¦ équipe --------------------------------------------------------------------------------------------------------------------------------------------------------------------------------------------------------------------------------------------------------------------------------------------------------------------------------------------------------------------------- 1. Deho Marzio 1968 I-Torre Boldone (BG) 6:56.38,1 ----- (8) diplôme foto V-H-Over 20. 18,001 ¦ 1:19.37 1.¦ 1:12.43 2.¦ 1:01.04 2.¦ 44.36 1.¦ 0.51 4.¦ 36.22 2.¦ 50.47 3.¦ 31.43 3.¦ 38.51 1.¦ Olympia ¦ ¦ 2:32.20 1.¦ 3:33.24 1.¦ 4:18.01 1.¦ 4:18.53 1.¦ 4:55.15 1.¦ 5:46.03 1.¦ 6:17.46 1.¦ 6:56.38 1.¦
2. Jauch Patrick 1973 Seedorf UR 7:09.04,7 12.26,6 (1608) diplôme foto V-H-Over 26. 17,479 ¦ 1:23.03 2.¦ 1:12.22 1.¦ 1:00.33 1.¦ 47.57 3.¦ 0.55 6.¦ 37.00 4.¦ 53.10 5.¦ 31.14 2.¦ 42.46 5.¦ Bike Welt Gisler ¦ ¦ 2:35.26 2.¦ 3:35.59 2.¦ 4:23.56 2.¦ 4:24.52 2.¦ 5:01.53 2.¦ 5:55.03 2.¦ 6:26.18 2.¦ 7:09.04 2.¦
3. Corti Pascal 1969 Bramois 7:10.58,3 14.20,2 (101) diplôme foto V-H-Over 27. 17,402 ¦ 1:25.57 4.¦ 1:17.16 5.¦ 1:05.51 6.¦ 48.29 5.¦ 0.57 10.¦ 35.10 1.¦ 46.30 1.¦ 29.09 1.¦ 41.34 2.¦ Team Zimmermann Bergamont Mathieu ¦ ¦ 2:43.14 4.¦ 3:49.05 5.¦ 4:37.35 5.¦ 4:38.33 5.¦ 5:13.43 4.¦ 6:00.14 3.¦ 6:29.23 3.¦ 7:10.58 3.¦
4. Daniel Christophe 1973 Marsens 7:19.19,6 22.41,5 (104) diplôme foto V-H-Over 29. 17,071 ¦ 1:25.53 3.¦ 1:15.58 4.¦ 1:04.26 4.¦ 46.26 2.¦ 0.56 8.¦ 39.38 9.¦ 50.41 2.¦ 33.18 4.¦ 42.01 3.¦ ¦ ¦ 2:41.51 3.¦ 3:46.17 3.¦ 4:32.43 3.¦ 4:33.39 3.¦ 5:13.18 3.¦ 6:03.59 4.¦ 6:37.18 4.¦ 7:19.19 4.¦
5. Gerber Hansjurg 1966 Thun 7:27.45,8 31.07,7 (1205) diplôme foto V-H-Over 35. 16,749 ¦ 1:28.03 5.¦ 1:15.20 3.¦ 1:03.43 3.¦ 50.10 7.¦ 0.57 9.¦ 36.51 3.¦ 51.39 4.¦ 35.41 9.¦ 45.17 10.¦ Team Bikeholiday.ch ¦ ¦ 2:43.24 5.¦ 3:47.07 4.¦ 4:37.17 4.¦ 4:38.15 4.¦ 5:15.07 5.¦ 6:06.46 5.¦ 6:42.28 5.¦ 7:27.45 5.¦
6. Uboldi Dimitri 1970 Cugnasco 7:39.06,0 42.27,9 (1255) diplôme foto V-H-Over 44. 16,336 ¦ 1:32.55 12.¦ 1:19.27 8.¦ 1:04.38 5.¦ 48.15 4.¦ 0.57 11.¦ 39.36 8.¦ 55.52 8.¦ 34.30 6.¦ 42.51 6.¦ ¦ ¦ 2:52.22 8.¦ 3:57.01 6.¦ 4:45.16 6.¦ 4:46.14 6.¦ 5:25.51 6.¦ 6:21.43 7.¦ 6:56.14 6.¦ 7:39.06 6.¦
7. Heitland Thomas 1971 Thyon-Les Collons 7:41.41,5 45.03,4 (1675) diplôme foto V-H-Over 46. 16,244 ¦ 1:31.56 6.¦ 1:19.12 7.¦ 1:07.23 10.¦ 49.17 6.¦ 1.40 180.¦ 38.28 5.¦ 53.36 6.¦ 35.08 7.¦ 44.56 8.¦ Thyon- 4 Vallées Powerbar ¦ ¦ 2:51.09 6.¦ 3:58.32 7.¦ 4:47.50 7.¦ 4:49.31 7.¦ 5:27.59 7.¦ 6:21.36 6.¦ 6:56.44 7.¦ 7:41.41 7.¦
8. Pfisterer Lukas 1973 Aarau 7:57.33,5 1:00.55,4 (1229) diplôme foto V-H-Over 60. 15,704 ¦ 1:32.32 10.¦ 1:26.41 27.¦ 1:06.27 7.¦ 50.58 8.¦ 1.00 14.¦ 39.20 7.¦ 58.25 13.¦ 35.53 10.¦ 46.14 14.¦ ¦ ¦ 2:59.13 17.¦ 4:05.41 10.¦ 4:56.39 9.¦ 4:57.39 9.¦ 5:36.59 8.¦ 6:35.25 8.¦ 7:11.18 8.¦ 7:57.33 8.¦
9. Craviolini Jean-Christoph 1971 Vercorin 8:01.16,9 1:04.38,8 (1245) diplôme foto V-H-Over 65. 15,583 ¦ 1:31.57 7.¦ 1:19.55 9.¦ 1:10.38 15.¦ 53.09 15.¦ 1.12 75.¦ 41.48 21.¦ 1:03.05 29.¦ 34.08 5.¦ 45.22 11.¦ cyclo sport chalais ¦ ¦ 2:51.53 7.¦ 4:02.31 8.¦ 4:55.40 8.¦ 4:56.53 8.¦ 5:38.41 9.¦ 6:41.46 10.¦ 7:15.54 9.¦ 8:01.16 9.¦
10. Strolz Ewald 1968 Malans SG 8:04.44,5 1:08.06,4 (1644) diplôme foto V-H-Over 70. 15,472 ¦ 1:35.42 20.¦ 1:22.13 12.¦ 1:07.23 9.¦ 56.58 36.¦ 1.01 18.¦ 41.21 17.¦ 56.55 10.¦ 36.45 13.¦ 46.24 16.¦ Stöckli Racing Team ¦ ¦ 2:57.56 14.¦ 4:05.19 9.¦ 5:02.17 13.¦ 5:03.19 13.¦ 5:44.40 13.¦ 6:41.35 9.¦ 7:18.20 10.¦ 8:04.44 10.¦
11. Thommen Claudius 1966 Bonaduz 8:08.11,2 1:11.33,1 (1491) diplôme foto V-H-Over 72. 15,362 ¦ 1:36.03 22.¦ 1:27.56 36.¦ 1:13.56 32.¦ 52.31 13.¦ 1.04 28.¦ 40.31 12.¦ 55.40 7.¦ 37.04 15.¦ 43.23 7.¦ Pietro's Veloshop ¦ ¦ 3:03.59 27.¦ 4:17.56 29.¦ 5:10.27 23.¦ 5:11.31 23.¦ 5:52.03 18.¦ 6:47.43 16.¦ 7:24.48 14.¦ 8:08.11 11.¦
12. Saucy Joseph 1972 Chevenez 8:08.12,4 1:11.34,3 (1246) diplôme foto V-H-Over 73. 15,362 ¦ 1:34.31 15.¦ 1:20.49 10.¦ 1:10.36 14.¦ 55.07 26.¦ 1.07 43.¦ 41.25 18.¦ 58.50 15.¦ 37.04 14.¦ 48.41 35.¦ GS Ajoie ¦ ¦ 2:55.20 10.¦ 4:05.57 11.¦ 5:01.04 10.¦ 5:02.12 11.¦ 5:43.37 11.¦ 6:42.27 12.¦ 7:19.31 11.¦ 8:08.12 12.¦
13. Bruton Malcolm 1973 Allenwinden 8:10.12,0 1:13.33,9 (1230) diplôme foto V-H-Over 79. 15,299 ¦ 1:34.59 16.¦ 1:24.43 20.¦ 1:11.13 19.¦ 52.06 9.¦ 1.03 23.¦ 41.15 15.¦ 58.22 12.¦ 39.46 32.¦ 46.42 19.¦ BPM Coaching ¦ ¦ 2:59.42 19.¦ 4:10.55 17.¦ 5:03.02 15.¦ 5:04.06 15.¦ 5:45.21 14.¦ 6:43.43 13.¦ 7:23.29 13.¦ 8:10.12 13.¦
14. Monnet Christian 1965 Martigny 8:12.45,8 1:16.07,7 (1243) diplôme foto V-H-Over 85. 15,220 ¦ 1:37.14 27.¦ 1:23.43 17.¦ 1:11.04 17.¦ 53.47 17.¦ 1.12 72.¦ 40.32 13.¦ 58.36 14.¦ 40.10 37.¦ 46.23 15.¦ Giant / BikerJoy ¦ ¦ 3:00.58 20.¦ 4:12.02 19.¦ 5:05.50 17.¦ 5:07.02 17.¦ 5:47.35 16.¦ 6:46.11 15.¦ 7:26.21 15.¦ 8:12.45 14.¦
15. White Anthony 1971 GB-Peterborough 8:13.23,7 1:16.45,6 (108) diplôme foto V-H-Over 87. 15,200 ¦ 1:33.30 13.¦ 1:25.20 22.¦ 1:11.16 20.¦ 54.20 20.¦ 1.00 15.¦ 39.54 11.¦ 56.42 9.¦ 41.10 47.¦ 50.07 49.¦ XCRACER.Com / MT ZOOM ¦ ¦ 2:58.51 16.¦ 4:10.07 16.¦ 5:04.27 16.¦ 5:05.28 16.¦ 5:45.22 15.¦ 6:42.05 11.¦ 7:23.15 12.¦ 8:13.23 15.¦
16. Spratt Mark 1971 GB-Cardiff 8:14.25,3 1:17.47,2 (95) diplôme foto V-H-Over 89. 15,169 ¦ 1:37.59 34.¦ 1:28.14 38.¦ 1:10.47 16.¦ 52.30 12.¦ 0.57 11.¦ 42.36 28.¦ 58.11 11.¦ 37.08 16.¦ 46.00 12.¦ Bikesoup Test Team ¦ ¦ 3:06.13 32.¦ 4:17.01 26.¦ 5:09.31 20.¦ 5:10.29 20.¦ 5:53.05 22.¦ 6:51.17 17.¦ 7:28.25 17.¦ 8:14.25 16.¦
17. Joliat Yves 1966 La Sarraz 8:18.34,7 1:21.56,6 (1684) diplôme foto V-H-Over 93. 15,042 ¦ 1:32.49 11.¦ 1:24.29 19.¦ 1:11.07 18.¦ 52.48 14.¦ 0.45 2.¦ 39.07 6.¦ 1:03.11 31.¦ 42.44 61.¦ 51.29 56.¦ ¦ ¦ 2:57.19 13.¦ 4:08.27 14.¦ 5:01.15 11.¦ 5:02.01 10.¦ 5:41.08 10.¦ 6:44.19 14.¦ 7:27.04 16.¦ 8:18.34 17.¦
18. Lackner Joe 1967 Zermatt 8:20.21,2 1:23.43,1 (1212) diplôme foto V-H-Over 96. 14,989 ¦ 1:32.28 9.¦ 1:23.33 16.¦ 1:17.20 47.¦ 55.09 27.¦ 1.03 25.¦ 43.20 30.¦ 1:01.36 22.¦ 36.35 11.¦ 49.12 39.¦ scott zermatt ¦ ¦ 2:56.01 11.¦ 4:13.22 20.¦ 5:08.32 19.¦ 5:09.35 19.¦ 5:52.56 21.¦ 6:54.33 21.¦ 7:31.08 19.¦ 8:20.21 18.¦
19. Amstutz Eric 1973 Rances 8:20.47,0 1:24.08,9 (1541) diplôme foto V-H-Over 97. 14,976 ¦ 1:35.58 21.¦ 1:23.32 15.¦ 1:08.43 12.¦ 1:00.12 62.¦ 1.03 21.¦ 41.10 14.¦ 1:00.44 17.¦ 40.21 39.¦ 49.00 37.¦ Wanner Cycles ¦ ¦ 2:59.30 18.¦ 4:08.14 13.¦ 5:08.26 18.¦ 5:09.30 18.¦ 5:50.41 17.¦ 6:51.25 18.¦ 7:31.47 20.¦ 8:20.47 19.¦
20. Schwizer Walter 1966 Reiden 8:21.02,2 1:24.24,1 (1223) diplôme foto V-H-Over 98. 14,968 ¦ 1:37.22 28.¦ 1:25.35 24.¦ 1:12.17 24.¦ 54.40 22.¦ 1.04 26.¦ 42.24 25.¦ 1:01.29 21.¦ 38.26 21.¦ 47.42 27.¦ Stöckli Racing Team ¦ ¦ 3:02.57 25.¦ 4:15.15 21.¦ 5:09.55 22.¦ 5:10.59 22.¦ 5:53.23 23.¦ 6:54.53 22.¦ 7:33.19 21.¦ 8:21.02 20.¦
21. Böhler Andreas 1973 Rheinfelden 8:21.52,2 1:25.14,1 (1680) diplôme foto V-H-Over 99. 14,944 ¦ 1:35.16 17.¦ 1:22.55 14.¦ 1:13.17 29.¦ 59.49 57.¦ 0.57 11.¦ 41.19 16.¦ 59.40 16.¦ 36.39 12.¦ 51.57 61.¦ ¦ ¦ 2:58.11 15.¦ 4:11.28 18.¦ 5:11.17 26.¦ 5:12.15 26.¦ 5:53.35 24.¦ 6:53.15 20.¦ 7:29.54 18.¦ 8:21.52 21.¦
22. Imboden Michel 1974 Zermatt 8:22.08,1 1:25.30,0 (1242) diplôme foto V-H-Over 100. 14,936 ¦ 1:36.40 23.¦ 1:26.38 26.¦ 1:12.45 26.¦ 53.49 18.¦ 1.04 29.¦ 41.46 20.¦ 1:02.36 27.¦ 39.17 28.¦ 47.29 24.¦ slalomsport ¦ ¦ 3:03.18 26.¦ 4:16.03 23.¦ 5:09.53 21.¦ 5:10.57 21.¦ 5:52.44 19.¦ 6:55.20 23.¦ 7:34.38 23.¦ 8:22.08 22.¦
23. Christen Martin 1972 Buochs 8:24.00,0 1:27.21,9 (1713) diplôme foto V-H-Over 103. 14,880 ¦ 1:35.39 19.¦ 1:21.21 11.¦ 1:11.38 23.¦ 54.18 19.¦ 1.03 22.¦ 39.50 10.¦ 1:07.36 53.¦ 42.56 67.¦ 49.37 44.¦ BC Titlis ¦ ¦ 2:57.00 12.¦ 4:08.38 15.¦ 5:02.57 14.¦ 5:04.00 14.¦ 5:43.50 12.¦ 6:51.26 19.¦ 7:34.23 22.¦ 8:24.00 23.¦
24. Rudaz Mario 1967 Lens 8:25.51,2 1:29.13,1 (1237) diplôme foto V-H-Over 106. 14,826 ¦ 1:38.34 38.¦ 1:27.45 32.¦ 1:10.15 13.¦ 54.31 21.¦ 1.04 30.¦ 42.24 26.¦ 1:02.22 25.¦ 40.58 45.¦ 47.52 30.¦ ¦ ¦ 3:06.20 34.¦ 4:16.36 24.¦ 5:11.08 25.¦ 5:12.13 25.¦ 5:54.37 25.¦ 6:57.00 24.¦ 7:37.58 24.¦ 8:25.51 24.¦
25. Schiffmann Manuel 1966 Biel/Bienne 8:28.47,0 1:32.08,9 (1235) diplôme foto V-H-Over 113. 14,741 ¦ 1:38.35 39.¦ 1:26.18 25.¦ 1:12.35 25.¦ 56.02 30.¦ 1.07 42.¦ 44.28 43.¦ 1:04.03 37.¦ 39.06 24.¦ 46.29 17.¦ ¦ ¦ 3:04.54 28.¦ 4:17.29 27.¦ 5:13.31 28.¦ 5:14.39 28.¦ 5:59.08 28.¦ 7:03.11 27.¦ 7:42.17 26.¦ 8:28.47 25.¦
26. Eggenschwiler Dieter 1973 Mümliswil 8:30.38,5 1:34.00,4 (1263) diplôme foto V-H-Over 117. 14,687 ¦ 1:36.48 24.¦ 1:25.26 23.¦ 1:13.48 31.¦ 54.43 23.¦ 1.05 35.¦ 43.46 34.¦ 1:03.53 35.¦ 42.46 63.¦ 48.21 33.¦ Alpiq Muscle Power ¦ ¦ 3:02.14 22.¦ 4:16.02 22.¦ 5:10.45 24.¦ 5:11.51 24.¦ 5:55.37 26.¦ 6:59.30 25.¦ 7:42.17 25.¦ 8:30.38 26.¦
27. Faiss Joakim 1970 Fully 8:31.45,6 1:35.07,5 (23) diplôme foto V-H-Over 120. 14,655 ¦ 1:55.36 146.¦ 1:18.05 6.¦ 1:07.06 8.¦ 52.28 11.¦ 1.12 72.¦ 44.27 42.¦ 1:12.08 72.¦ 38.26 20.¦ 42.14 4.¦ bikinvalais.ch / VCE Martigny ¦ ¦ 3:13.41 54.¦ 4:20.48 32.¦ 5:13.16 27.¦ 5:14.29 27.¦ 5:58.56 27.¦ 7:11.05 33.¦ 7:49.31 30.¦ 8:31.45 27.¦
28. Tossut Roger 1968 Küssnacht am Rigi 8:35.00,1 1:38.22,0 (1620) diplôme foto V-H-Over 126. 14,563 ¦ 1:43.31 64.¦ 1:31.46 55.¦ 1:14.43 34.¦ 52.14 10.¦ 1.11 69.¦ 43.27 32.¦ 1:00.54 18.¦ 39.58 34.¦ 47.13 21.¦ ¦ ¦ 3:15.17 60.¦ 4:30.01 50.¦ 5:22.15 37.¦ 5:23.27 36.¦ 6:06.54 34.¦ 7:07.48 28.¦ 7:47.46 28.¦ 8:35.00 28.¦
29. Pivert Jerome 1974 F-Sevrai 8:35.44,6 1:39.06,5 (107) diplôme foto V-H-Over 128. 14,542 ¦ 1:39.56 46.¦ 1:27.38 30.¦ 1:16.30 43.¦ 56.37 32.¦ 0.51 5.¦ 44.07 39.¦ 1:05.22 41.¦ 37.54 17.¦ 46.45 20.¦ UCPA ¦ ¦ 3:07.34 37.¦ 4:24.05 36.¦ 5:20.42 32.¦ 5:21.33 32.¦ 6:05.41 32.¦ 7:11.04 32.¦ 7:48.59 29.¦ 8:35.44 29.¦
30. Rudaz Sigismond 1969 Conthey 8:37.56,8 1:41.18,7 (1628) diplôme foto V-H-Over 134. 14,480 ¦ 1:37.40 32.¦ 1:27.51 33.¦ 1:13.19 30.¦ 57.41 40.¦ 1.11 67.¦ 43.24 31.¦ 1:01.46 24.¦ 40.38 42.¦ 54.24 75.¦ cyclophile sédunois ¦ ¦ 3:05.31 31.¦ 4:18.50 30.¦ 5:16.32 30.¦ 5:17.43 30.¦ 6:01.07 29.¦ 7:02.54 26.¦ 7:43.32 27.¦ 8:37.56 30.¦
31. Fatton Frédéric 1969 Couvet 8:39.20,4 1:42.42,3 (1719) diplôme foto V-H-Over 139. 14,441 ¦ 1:38.59 41.¦ 1:27.38 31.¦ 1:18.31 56.¦ 56.37 33.¦ 1.10 64.¦ 45.34 50.¦ 1:04.45 39.¦ 41.06 46.¦ 44.57 9.¦ Pro 2 roues ¦ ¦ 3:06.37 35.¦ 4:25.08 39.¦ 5:21.46 35.¦ 5:22.57 35.¦ 6:08.31 36.¦ 7:13.17 36.¦ 7:54.23 35.¦ 8:39.20 31.¦
32. Bourquenoud Pierre 1969 Vaulruz 8:44.28,2 1:47.50,1 (1696) diplôme foto V-H-Over 140. 14,300 ¦ 1:37.34 29.¦ 1:27.55 35.¦ 1:11.28 21.¦ 57.47 41.¦ 1.04 27.¦ 49.00 82.¦ 1:05.29 43.¦ 40.32 41.¦ 53.36 72.¦ Team Zimmermann ¦ ¦ 3:05.29 30.¦ 4:16.57 25.¦ 5:14.45 29.¦ 5:15.49 29.¦ 6:04.49 31.¦ 7:10.18 29.¦ 7:50.51 33.¦ 8:44.28 32.¦
33. Tabourat Patrick 1971 Bassecourt 8:44.33,5 1:47.55,4 (1265) diplôme foto V-H-Over 142. 14,297 ¦ 1:39.12 43.¦ 1:28.29 39.¦ 1:16.47 44.¦ 1:00.13 63.¦ 1.07 40.¦ 41.52 22.¦ 1:05.21 40.¦ 42.12 53.¦ 49.18 41.¦ Team Tabourat ¦ ¦ 3:07.42 39.¦ 4:24.29 37.¦ 5:24.42 40.¦ 5:25.50 39.¦ 6:07.42 35.¦ 7:13.03 35.¦ 7:55.15 36.¦ 8:44.33 33.¦
34. Bechtel Yves 1969 Champoz 8:45.08,5 1:48.30,4 (1276) diplôme foto V-H-Over 143. 14,281 ¦ 1:40.59 50.¦ 1:33.45 68.¦ 1:14.43 33.¦ 58.53 46.¦ 1.06 37.¦ 42.17 24.¦ 1:04.39 38.¦ 41.11 48.¦ 47.31 25.¦ ¦ ¦ 3:14.45 59.¦ 4:29.28 46.¦ 5:28.21 48.¦ 5:29.27 47.¦ 6:11.45 42.¦ 7:16.24 37.¦ 7:57.36 37.¦ 8:45.08 34.¦
35. Chèvre Olivier 1973 Bassecourt 8:46.52,5 1:50.14,4 (1323) diplôme foto V-H-Over 151. 14,234 ¦ 1:40.36 49.¦ 1:28.30 40.¦ 1:15.29 37.¦ 57.03 37.¦ 1.08 44.¦ 46.34 61.¦ 1:07.46 54.¦ 42.00 52.¦ 47.44 28.¦ VC Courtételle / Joliat Cycles ¦ ¦ 3:09.06 42.¦ 4:24.35 38.¦ 5:21.39 34.¦ 5:22.47 33.¦ 6:09.21 38.¦ 7:17.08 38.¦ 7:59.08 39.¦ 8:46.52 35.¦
36. Jauk Marjan 1969 SLO-Fram 8:48.09,5 1:51.31,4 (77) diplôme foto V-H-Over 153. 14,200 ¦ 1:45.30 74.¦ 1:31.53 57.¦ 1:20.00 65.¦ 56.42 34.¦ 1.03 23.¦ 41.42 19.¦ 1:01.43 23.¦ 39.39 31.¦ 49.54 46.¦ GANESHA TEAM Scott ¦ ¦ 3:17.23 63.¦ 4:37.24 63.¦ 5:34.06 57.¦ 5:35.10 56.¦ 6:16.52 49.¦ 7:18.35 39.¦ 7:58.14 38.¦ 8:48.09 36.¦
37. Gogniat Gall 1970 Rue 8:48.56,3 1:52.18,2 (1683) diplôme foto V-H-Over 154. 14,179 ¦ 1:39.02 42.¦ 1:29.42 45.¦ 1:13.02 27.¦ 1:05.09 112.¦ 1.29 155.¦ 49.12 85.¦ 1:03.55 36.¦ 39.34 30.¦ 47.49 29.¦ ¦ ¦ 3:08.44 41.¦ 4:21.46 34.¦ 5:26.55 46.¦ 5:28.25 46.¦ 6:17.37 50.¦ 7:21.32 41.¦ 8:01.06 41.¦ 8:48.56 37.¦
38. Giller David 1972 Marsens 8:50.35,2 1:53.57,1 (1253) diplôme foto V-H-Over 158. 14,135 ¦ 1:41.41 53.¦ 1:29.13 43.¦ 1:17.30 49.¦ 55.41 28.¦ 1.09 53.¦ 46.02 58.¦ 1:08.15 58.¦ 41.26 49.¦ 49.34 43.¦ cycles passion ¦ ¦ 3:10.54 48.¦ 4:28.25 43.¦ 5:24.07 38.¦ 5:25.16 37.¦ 6:11.19 41.¦ 7:19.34 40.¦ 8:01.01 40.¦ 8:50.35 38.¦
39. Röthlin Erich 1971 Ettiswil 8:51.23,3 1:54.45,2 (1260) diplôme foto V-H-Over 161. 14,113 ¦ 1:38.09 35.¦ 1:28.09 37.¦ 1:16.30 42.¦ 1:03.02 97.¦ 1.10 65.¦ 43.31 33.¦ 1:02.28 26.¦ 40.04 35.¦ 58.16 103.¦ Bike Shop Willisau ¦ ¦ 3:06.19 33.¦ 4:22.49 35.¦ 5:25.51 43.¦ 5:27.02 43.¦ 6:10.33 40.¦ 7:13.02 34.¦ 7:53.06 34.¦ 8:51.23 39.¦
40. Lagacé Alain 1971 Lausanne 8:52.05,2 1:55.27,1 (1738) diplôme foto V-H-Over 166. 14,095 ¦ 1:37.58 33.¦ 1:27.25 29.¦ 1:24.14 86.¦ 59.16 51.¦ 1.04 30.¦ 45.34 49.¦ 1:08.34 59.¦ 40.39 43.¦ 47.17 22.¦ ¦ ¦ 3:05.23 29.¦ 4:29.38 47.¦ 5:28.54 49.¦ 5:29.59 48.¦ 6:15.33 46.¦ 7:24.08 46.¦ 8:04.47 43.¦ 8:52.05 40.¦
41. Jouannin Rémi 1970 F-Lisieux 8:56.48,6 2:00.10,5 (36) diplôme foto V-H-Over 171. 13,971 ¦ 1:39.57 47.¦ 1:30.06 48.¦ 1:19.51 63.¦ 54.54 24.¦ 1.13 80.¦ 47.58 72.¦ 1:13.00 78.¦ 42.23 58.¦ 47.23 23.¦ xc couronne ¦ ¦ 3:10.03 44.¦ 4:29.54 49.¦ 5:24.49 41.¦ 5:26.03 40.¦ 6:14.01 44.¦ 7:27.02 51.¦ 8:09.25 48.¦ 8:56.48 41.¦
42. Berta Michele 1969 I-Milano (MI) 8:56.50,6 2:00.12,5 (1765) diplôme foto V-H-Over 173. 13,970 ¦ 1:47.22 87.¦ 1:35.23 80.¦ 1:15.03 36.¦ 1:00.36 68.¦ 1.14 85.¦ 44.00 38.¦ 1:01.20 20.¦ 38.54 23.¦ 52.55 69.¦ asd cassinis cycling ¦ ¦ 3:22.46 84.¦ 4:37.49 66.¦ 5:38.25 64.¦ 5:39.40 63.¦ 6:23.41 60.¦ 7:25.01 48.¦ 8:03.55 42.¦ 8:56.50 42.¦
43. Ott Martin 1974 Feuerthalen 8:57.56,2 2:01.18,1 (1521) diplôme foto V-H-Over 175. 13,942 ¦ 1:39.49 45.¦ 1:27.51 34.¦ 1:22.45 76.¦ 53.46 16.¦ 1.10 61.¦ 48.53 80.¦ 1:13.38 84.¦ 42.21 56.¦ 47.39 26.¦ RV Merishausen ¦ ¦ 3:07.41 38.¦ 4:30.26 51.¦ 5:24.13 39.¦ 5:25.23 38.¦ 6:14.16 45.¦ 7:27.55 54.¦ 8:10.16 51.¦ 8:57.56 43.¦
44. Kämpfer Thomas 1973 Berikon 8:58.14,1 2:01.36,0 (1252) diplôme foto V-H-Over 176. 13,934 ¦ 1:35.22 18.¦ 1:27.19 28.¦ 1:24.03 84.¦ 59.15 50.¦ 1.29 157.¦ 45.28 48.¦ 1:12.16 73.¦ 46.17 95.¦ 46.41 18.¦ ¦ ¦ 3:02.41 24.¦ 4:26.44 42.¦ 5:26.00 45.¦ 5:27.29 44.¦ 6:12.58 43.¦ 7:25.14 49.¦ 8:11.32 54.¦ 8:58.14 44.¦
45. Ambrosini Reto 1968 Bellinzona 8:58.27,2 2:01.49,1 (1445) diplôme foto V-H-Over 178. 13,928 ¦ 1:46.36 83.¦ 1:32.53 64.¦ 1:15.46 39.¦ 1:02.13 87.¦ 0.55 7.¦ 45.59 57.¦ 1:03.15 33.¦ 38.16 19.¦ 52.29 66.¦ Ottica Lepori ¦ ¦ 3:19.30 70.¦ 4:35.16 60.¦ 5:37.30 62.¦ 5:38.25 61.¦ 6:24.25 61.¦ 7:27.41 53.¦ 8:05.57 44.¦ 8:58.27 45.¦
46. Meier Benno 1973 Zürich 8:58.53,5 2:02.15,4 (1760) diplôme foto V-H-Over 180. 13,917 ¦ 1:37.36 30.¦ 1:24.11 18.¦ 1:17.44 50.¦ 58.01 42.¦ 1.09 52.¦ 45.41 51.¦ 1:18.49 108.¦ 43.08 69.¦ 52.32 67.¦ ¦ ¦ 3:01.47 21.¦ 4:19.32 31.¦ 5:17.33 31.¦ 5:18.42 31.¦ 6:04.23 30.¦ 7:23.12 43.¦ 8:06.21 45.¦ 8:58.53 46.¦
47. Bühler Paul 1967 Stans 9:00.01,9 2:03.23,8 (1721) diplôme foto V-H-Over 181. 13,888 ¦ 1:44.57 71.¦ 1:34.59 76.¦ 1:18.40 60.¦ 59.43 56.¦ 1.06 37.¦ 42.50 29.¦ 1:07.21 51.¦ 44.15 80.¦ 46.07 13.¦ MEERENDAL ¦ ¦ 3:19.56 71.¦ 4:38.37 68.¦ 5:38.20 63.¦ 5:39.26 62.¦ 6:22.17 58.¦ 7:29.38 57.¦ 8:13.54 57.¦ 9:00.01 47.¦
48. Baumgartner Jürg 1971 Steffisburg 9:03.25,2 2:06.47,1 (1278) diplôme foto V-H-Over 184. 13,801 ¦ 1:50.11 104.¦ 1:31.43 54.¦ 1:15.47 40.¦ 56.46 35.¦ 1.09 58.¦ 45.43 52.¦ 1:12.36 75.¦ 39.10 27.¦ 50.16 50.¦ RC Steffisburg ¦ ¦ 3:21.54 78.¦ 4:37.42 65.¦ 5:34.29 58.¦ 5:35.38 57.¦ 6:21.21 55.¦ 7:33.58 58.¦ 8:13.09 56.¦ 9:03.25 48.¦
49. Sérazin Johan 1969 F-Gahard 9:04.59,2 2:08.21,1 (69) diplôme foto V-H-Over 186. 13,761 ¦ 1:45.46 77.¦ 1:32.21 60.¦ 1:13.04 28.¦ 1:00.44 70.¦ 1.05 34.¦ 43.47 36.¦ 1:07.57 55.¦ 43.33 74.¦ 56.36 90.¦ cc Lifré ¦ ¦ 3:18.08 66.¦ 4:31.13 53.¦ 5:31.57 53.¦ 5:33.03 52.¦ 6:16.51 48.¦ 7:24.48 47.¦ 8:08.22 47.¦ 9:04.59 49.¦
50. Staiger Martin 1967 D-Dossenheim 9:05.19,4 2:08.41,3 (1669) diplôme foto V-H-Over 187. 13,753 ¦ 1:42.35 59.¦ 1:31.41 53.¦ 1:16.50 45.¦ 59.55 59.¦ 1.15 89.¦ 45.59 56.¦ 1:05.38 45.¦ 45.42 91.¦ 55.41 83.¦ Kommando 8. August ¦ ¦ 3:14.17 58.¦ 4:31.07 52.¦ 5:31.02 52.¦ 5:32.17 51.¦ 6:18.17 51.¦ 7:23.55 45.¦ 8:09.37 49.¦ 9:05.19 50.¦
51. Seematter Gerald 1970 Lausanne 9:05.39,7 2:09.01,6 (1690) diplôme foto V-H-Over 189. 13,744 ¦ 1:42.17 58.¦ 1:31.39 52.¦ 1:14.52 35.¦ 1:06.35 125.¦ 1.16 100.¦ 46.27 60.¦ 1:05.55 46.¦ 41.34 50.¦ 55.01 80.¦ ¦ ¦ 3:13.56 55.¦ 4:28.49 45.¦ 5:35.24 60.¦ 5:36.41 59.¦ 6:23.08 59.¦ 7:29.04 56.¦ 8:10.38 52.¦ 9:05.39 51.¦
52. Fahrni Pierre 1974 Cressier NE 9:05.40,6 2:09.02,5 (1372) diplôme foto V-H-Over 190. 13,744 ¦ 1:48.13 92.¦ 1:33.23 66.¦ 1:16.56 46.¦ 1:01.41 83.¦ 1.02 20.¦ 43.47 35.¦ 1:02.57 28.¦ 39.07 26.¦ 58.31 106.¦ ¦ ¦ 3:21.36 77.¦ 4:38.33 67.¦ 5:40.14 67.¦ 5:41.17 66.¦ 6:25.04 62.¦ 7:28.01 55.¦ 8:07.09 46.¦ 9:05.40 52.¦
53. Estermann Stephan 1971 St. Gallen 9:07.11,7 2:10.33,6 (1606) diplôme foto V-H-Over 194. 13,706 ¦ 1:41.35 52.¦ 1:28.30 41.¦ 1:15.42 38.¦ 56.07 31.¦ 1.01 17.¦ 43.55 37.¦ 1:03.34 34.¦ 39.55 33.¦ 1:16.49 163.¦ ¦ ¦ 3:10.05 45.¦ 4:25.48 41.¦ 5:21.55 36.¦ 5:22.57 34.¦ 6:06.52 33.¦ 7:10.26 30.¦ 7:50.22 31.¦ 9:07.11 53.¦
54. Zwyssig Alex 1968 Küssnacht am Rigi 9:08.02,6 2:11.24,5 (1603) diplôme foto V-H-Over 195. 13,685 ¦ 1:42.13 55.¦ 1:33.43 67.¦ 1:16.21 41.¦ 1:03.22 102.¦ 1.08 44.¦ 45.17 47.¦ 1:05.30 44.¦ 43.19 70.¦ 57.06 94.¦ ¦ ¦ 3:15.56 62.¦ 4:32.18 57.¦ 5:35.40 61.¦ 5:36.48 60.¦ 6:22.05 57.¦ 7:27.35 52.¦ 8:10.55 53.¦ 9:08.02 54.¦
55. Stock Thomas 1965 D-Gelnhausen 9:08.09,3 2:11.31,2 (111) diplôme foto V-H-Over 196. 13,682 ¦ 1:44.04 65.¦ 1:33.23 65.¦ 1:18.24 53.¦ 58.56 47.¦ 1.17 102.¦ 44.20 41.¦ 1:03.11 32.¦ 47.58 109.¦ 56.34 89.¦ Cycle Point Stock / Schlappe Waden ¦ ¦ 3:17.27 64.¦ 4:35.52 61.¦ 5:34.48 59.¦ 5:36.05 58.¦ 6:20.25 54.¦ 7:23.37 44.¦ 8:11.35 55.¦ 9:08.09 55.¦
56. Nanchen Gérald 1966 Conthey 9:08.36,3 2:11.58,2 (1269) diplôme foto V-H-Over 199. 13,671 ¦ 1:36.56 26.¦ 1:29.46 46.¦ 1:18.35 59.¦ 1:00.16 64.¦ 1.09 55.¦ 42.07 23.¦ 1:14.17 88.¦ 46.40 98.¦ 58.46 110.¦ Team Chiron ¦ ¦ 3:06.42 36.¦ 4:25.18 40.¦ 5:25.34 42.¦ 5:26.43 41.¦ 6:08.51 37.¦ 7:23.09 42.¦ 8:09.49 50.¦ 9:08.36 56.¦
57. Donnet Amaël 1973 Monthey 9:11.53,8 2:15.15,7 (1222) diplôme foto V-H-Over 202. 13,589 ¦ 1:33.42 14.¦ 1:36.29 84.¦ 1:07.42 11.¦ 1:08.04 132.¦ 1.00 16.¦ 42.24 27.¦ 1:01.07 19.¦ 40.12 38.¦ 1:21.09 169.¦ ¦ ¦ 3:10.12 46.¦ 4:17.55 28.¦ 5:26.00 44.¦ 5:27.00 42.¦ 6:09.25 39.¦ 7:10.32 31.¦ 7:50.44 32.¦ 9:11.53 57.¦
58. Serafini Jean-Pierre 1967 L-Esch-sur-Alzette 9:11.54,5 2:15.16,4 (1593) diplôme foto V-H-Over 203. 13,589 ¦ 1:42.14 56.¦ 1:29.58 47.¦ 1:19.30 62.¦ 58.47 45.¦ 1.13 80.¦ 50.02 95.¦ 1:16.48 100.¦ 41.54 51.¦ 51.24 55.¦ néant ¦ ¦ 3:12.12 52.¦ 4:31.43 56.¦ 5:30.30 50.¦ 5:31.44 49.¦ 6:21.47 56.¦ 7:38.35 63.¦ 8:20.29 60.¦ 9:11.54 58.¦
59. Wyss Thomas 1966 Liesberg Dorf 9:13.40,8 2:17.02,7 (1281) diplôme foto V-H-Over 204. 13,545 ¦ 1:43.20 63.¦ 1:30.46 50.¦ 1:18.27 54.¦ 1:00.23 66.¦ 1.20 120.¦ 51.19 112.¦ 1:14.40 90.¦ 43.21 71.¦ 49.59 48.¦ Radsp. Wuhr, Zwingen ¦ ¦ 3:14.07 57.¦ 4:32.34 58.¦ 5:32.58 55.¦ 5:34.19 54.¦ 6:25.39 63.¦ 7:40.19 65.¦ 8:23.41 61.¦ 9:13.40 59.¦
60. Valzino Jean-Philippe 1967 Boussens 9:13.58,6 2:17.20,5 (1394) diplôme foto V-H-Over 205. 13,538 ¦ 1:46.27 82.¦ 1:36.46 85.¦ 1:18.18 52.¦ 1:04.38 108.¦ 1.01 19.¦ 45.03 46.¦ 1:03.05 30.¦ 39.29 29.¦ 59.08 111.¦ ¦ ¦ 3:23.13 87.¦ 4:41.31 70.¦ 5:46.10 77.¦ 5:47.11 76.¦ 6:32.14 70.¦ 7:35.20 59.¦ 8:14.50 58.¦ 9:13.58 60.¦
61. Sebregts Bart 1970 NL-Berkel-Enschot 9:16.10,4 2:19.32,3 (1247) diplôme foto V-H-Over 207. 13,485 ¦ 1:47.27 88.¦ 1:34.50 75.¦ 1:20.28 67.¦ 57.37 39.¦ 1.09 57.¦ 46.39 62.¦ 1:09.51 62.¦ 47.32 104.¦ 50.33 52.¦ Sponser Bike Team Holland / Berkel Biker ¦ ¦ 3:22.17 80.¦ 4:42.46 75.¦ 5:40.23 68.¦ 5:41.32 67.¦ 6:28.12 66.¦ 7:38.04 62.¦ 8:25.36 63.¦ 9:16.10 61.¦
62. Gabbud Pierre-Alain 1965 Flanthey 9:17.02,8 2:20.24,7 (1290) diplôme foto V-H-Over 210. 13,463 ¦ 1:47.36 89.¦ 1:41.30 118.¦ 1:23.18 81.¦ 59.49 58.¦ 1.08 48.¦ 49.10 84.¦ 1:06.21 48.¦ 38.36 22.¦ 49.31 42.¦ GB Bike ¦ ¦ 3:29.06 101.¦ 4:52.25 92.¦ 5:52.14 88.¦ 5:53.22 87.¦ 6:42.33 86.¦ 7:48.55 75.¦ 8:27.31 66.¦ 9:17.02 62.¦
63. Pradera Marco 1972 Galgenen 9:17.42,8 2:21.04,7 (1240) diplôme foto V-H-Over 211. 13,447 ¦ 1:47.46 91.¦ 1:34.48 73.¦ 1:23.40 82.¦ 58.35 44.¦ 1.18 107.¦ 48.11 76.¦ 1:11.22 70.¦ 42.44 61.¦ 49.14 40.¦ ¦ ¦ 3:22.34 82.¦ 4:46.15 81.¦ 5:44.50 73.¦ 5:46.09 72.¦ 6:34.21 73.¦ 7:45.43 71.¦ 8:28.28 69.¦ 9:17.42 63.¦
64. Burkhardt Philippe 1974 Valeyres-sous-Rances 9:18.38,3 2:22.00,2 (1350) diplôme foto V-H-Over 212. 13,425 ¦ 1:42.59 62.¦ 1:37.27 89.¦ 1:23.45 83.¦ 1:00.54 72.¦ 1.20 116.¦ 45.54 55.¦ 1:10.04 64.¦ 44.26 85.¦ 51.44 59.¦ Pro Sport Service ¦ ¦ 3:20.27 72.¦ 4:44.13 77.¦ 5:45.07 74.¦ 5:46.28 75.¦ 6:32.22 71.¦ 7:42.27 67.¦ 8:26.53 65.¦ 9:18.38 64.¦
65. Suter Ueli 1965 Seon 9:18.49,6 2:22.11,5 (1273) diplôme foto V-H-Over 213. 13,420 ¦ 1:39.22 44.¦ 1:31.46 56.¦ 1:18.30 55.¦ 57.35 38.¦ 1.06 37.¦ 47.47 69.¦ 1:09.27 61.¦ 54.42 150.¦ 58.30 105.¦ ¦ ¦ 3:11.09 51.¦ 4:29.40 48.¦ 5:27.15 47.¦ 5:28.22 45.¦ 6:16.09 47.¦ 7:25.36 50.¦ 8:20.18 59.¦ 9:18.49 65.¦
66. Chassot Jacques 1970 Posieux 9:18.55,1 2:22.17,0 (1251) diplôme foto V-H-Over 214. 13,418 ¦ 1:45.47 78.¦ 1:37.20 88.¦ 1:25.42 94.¦ 1:01.16 77.¦ 1.11 70.¦ 44.14 40.¦ 1:06.05 47.¦ 46.25 97.¦ 50.50 53.¦ ¦ ¦ 3:23.08 86.¦ 4:48.50 83.¦ 5:50.07 83.¦ 5:51.19 82.¦ 6:35.34 74.¦ 7:41.39 66.¦ 8:28.05 67.¦ 9:18.55 66.¦
67. Pellissier Frédéric 1972 Ardon 9:23.07,1 2:26.29,0 (1308) diplôme foto V-H-Over 220. 13,318 ¦ 1:49.24 100.¦ 1:38.57 96.¦ 1:27.04 101.¦ 55.42 29.¦ 1.08 51.¦ 49.35 90.¦ 1:10.48 68.¦ 42.24 59.¦ 48.02 31.¦ VELOSOPHE BEER BRIGADE ¦ ¦ 3:28.21 100.¦ 4:55.25 98.¦ 5:51.08 87.¦ 5:52.16 86.¦ 6:41.51 84.¦ 7:52.40 80.¦ 8:35.05 77.¦ 9:23.07 67.¦
68. Maillefer Denis 1965 Lausanne 9:23.34,1 2:26.56,0 (1327) diplôme foto V-H-Over 221. 13,308 ¦ 1:53.08 123.¦ 1:40.47 109.¦ 1:23.18 80.¦ 1:02.26 92.¦ 1.13 80.¦ 45.03 45.¦ 1:05.26 42.¦ 43.46 75.¦ 48.24 34.¦ ¦ ¦ 3:33.55 119.¦ 4:57.13 101.¦ 5:59.39 99.¦ 6:00.53 98.¦ 6:45.56 89.¦ 7:51.23 77.¦ 8:35.10 79.¦ 9:23.34 68.¦
69. Amdouni Karim 1974 F-Larringes 9:23.54,1 2:27.16,0 (1319) diplôme foto V-H-Over 222. 13,300 ¦ 1:44.06 67.¦ 1:34.24 72.¦ 1:27.28 106.¦ 59.24 53.¦ 1.05 33.¦ 50.25 101.¦ 1:13.47 85.¦ 44.25 84.¦ 48.47 36.¦ Char-Kam ¦ ¦ 3:18.30 67.¦ 4:45.58 80.¦ 5:45.22 76.¦ 5:46.28 74.¦ 6:36.53 76.¦ 7:50.41 76.¦ 8:35.06 78.¦ 9:23.54 69.¦
70. Flühmann André 1966 Courcelon 9:24.37,9 2:27.59,8 (1682) diplôme foto V-H-Over 225. 13,282 ¦ 1:55.54 147.¦ 1:39.09 100.¦ 1:24.07 85.¦ 59.12 49.¦ 1.20 118.¦ 45.51 54.¦ 1:06.22 49.¦ 44.30 86.¦ 48.08 32.¦ VTT Club Jura ¦ ¦ 3:35.04 122.¦ 4:59.11 107.¦ 5:58.24 97.¦ 5:59.45 96.¦ 6:45.36 88.¦ 7:51.59 79.¦ 8:36.29 80.¦ 9:24.37 70.¦
71. Naehring Martial 1974 D-Berlin 9:26.20,9 2:29.42,8 (1354) diplôme foto V-H-Over 230. 13,242 ¦ 1:47.22 86.¦ 1:38.01 92.¦ 1:19.51 64.¦ 1:03.39 103.¦ 1.10 61.¦ 47.03 67.¦ 1:08.10 57.¦ 42.48 64.¦ 58.14 102.¦ www.bwpm.de ¦ ¦ 3:25.23 93.¦ 4:45.15 79.¦ 5:48.54 80.¦ 5:50.04 79.¦ 6:37.07 77.¦ 7:45.18 69.¦ 8:28.06 68.¦ 9:26.20 71.¦
72. Pauly Klaus 1967 D-München 9:26.30,6 2:29.52,5 (1277) diplôme foto V-H-Over 231. 13,238 ¦ 1:48.31 93.¦ 1:34.09 71.¦ 1:18.33 57.¦ 1:05.51 117.¦ 1.16 97.¦ 50.03 96.¦ 1:09.55 63.¦ 42.22 57.¦ 55.46 86.¦ dimb racing team ¦ ¦ 3:22.40 83.¦ 4:41.14 69.¦ 5:47.05 78.¦ 5:48.22 77.¦ 6:38.25 81.¦ 7:48.21 74.¦ 8:30.44 70.¦ 9:26.30 72.¦
73. Griffiths Peter 1970 GB-Leatherhead 9:26.39,8 2:30.01,7 (1436) diplôme foto V-H-Over 232. 13,235 ¦ 1:46.42 84.¦ 1:35.12 79.¦ 1:20.13 66.¦ 1:05.37 115.¦ 1.18 106.¦ 46.53 65.¦ 1:10.46 67.¦ 38.11 18.¦ 1:01.44 126.¦ ¦ ¦ 3:21.55 79.¦ 4:42.08 72.¦ 5:47.46 79.¦ 5:49.04 78.¦ 6:35.57 75.¦ 7:46.43 72.¦ 8:24.55 62.¦ 9:26.39 73.¦
74. Doriel Alexandre 1973 Randogne 9:27.08,4 2:30.30,3 (1724) diplôme foto V-H-Over 234. 13,224 ¦ 1:47.42 90.¦ 1:39.15 102.¦ 1:24.24 87.¦ 1:06.08 122.¦ 1.13 80.¦ 48.26 77.¦ 1:07.00 50.¦ 40.47 44.¦ 52.09 63.¦ BMC Store Geneve ¦ ¦ 3:26.58 95.¦ 4:51.22 90.¦ 5:57.30 95.¦ 5:58.44 94.¦ 6:47.11 93.¦ 7:54.11 83.¦ 8:34.58 76.¦ 9:27.08 74.¦
75. Schiffmann Frank 1968 Burgdorf 9:27.42,5 2:31.04,4 (1410) diplôme foto V-H-Over 236. 13,211 ¦ 1:42.54 61.¦ 1:32.29 61.¦ 1:22.15 74.¦ 1:01.58 85.¦ 1.08 49.¦ 50.15 98.¦ 1:16.34 96.¦ 44.21 83.¦ 55.45 84.¦ RV Ersigen ¦ ¦ 3:15.24 61.¦ 4:37.39 64.¦ 5:39.38 66.¦ 5:40.46 65.¦ 6:31.01 68.¦ 7:47.35 73.¦ 8:31.56 72.¦ 9:27.42 75.¦
76. Waibel Norbert 1965 D-München 9:28.00,9 2:31.22,8 (121) diplôme foto V-H-Over 237. 13,203 ¦ 1:38.53 40.¦ 1:32.08 59.¦ 1:17.24 48.¦ 1:02.09 86.¦ 1.17 104.¦ 47.56 71.¦ 1:16.49 101.¦ 49.50 126.¦ 1:01.30 124.¦ Stöckli Racing Team ¦ ¦ 3:11.02 49.¦ 4:28.26 44.¦ 5:30.36 51.¦ 5:31.53 50.¦ 6:19.49 52.¦ 7:36.39 60.¦ 8:26.30 64.¦ 9:28.00 76.¦
77. Valenti Ivan 1971 Bellinzona 9:28.47,9 2:32.09,8 (1338) diplôme foto V-H-Over 243. 13,185 ¦ 1:46.26 81.¦ 1:32.06 58.¦ 1:31.13 128.¦ 1:00.48 71.¦ 1.16 100.¦ 45.46 53.¦ 1:13.57 86.¦ 46.56 100.¦ 50.16 50.¦ Team Ottica Lepori ¦ ¦ 3:18.32 68.¦ 4:49.46 87.¦ 5:50.34 84.¦ 5:51.51 83.¦ 6:37.38 79.¦ 7:51.35 78.¦ 8:38.31 81.¦ 9:28.47 77.¦
78. Janzen Eberhard 1968 D-Eberdingen 9:29.49,8 2:33.11,7 (1266) diplôme foto V-H-Over 246. 13,161 ¦ 1:42.54 60.¦ 1:34.49 74.¦ 1:18.35 58.¦ 1:02.44 94.¦ 1.06 36.¦ 46.48 64.¦ 1:11.02 69.¦ 53.18 143.¦ 58.31 107.¦ Porsche Radsport ¦ ¦ 3:17.44 65.¦ 4:36.19 62.¦ 5:39.03 65.¦ 5:40.09 64.¦ 6:26.57 65.¦ 7:37.59 61.¦ 8:31.18 71.¦ 9:29.49 78.¦
79. Grillet-Aubert Jacques 1973 F-La Chapelle d'Abondance 9:30.55,8 2:34.17,7 (1741) diplôme foto V-H-Over 248. 13,136 ¦ 1:38.33 37.¦ 1:46.22 140.¦ 1:24.39 88.¦ 1:01.08 74.¦ 1.10 63.¦ 49.31 88.¦ 1:24.01 133.¦ 35.32 8.¦ 49.55 47.¦ ecoleVTT Chatel ¦ ¦ 3:24.55 91.¦ 4:49.35 86.¦ 5:50.44 85.¦ 5:51.54 84.¦ 6:41.25 83.¦ 8:05.27 89.¦ 8:40.59 84.¦ 9:30.55 79.¦
80. Brändli Alex 1973 Nassenwil 9:31.25,1 2:34.47,0 (1446) diplôme foto V-H-Over 251. 13,125 ¦ 1:41.49 54.¦ 1:28.59 42.¦ 1:20.34 68.¦ 1:01.03 73.¦ 1.14 86.¦ 46.18 59.¦ 1:19.35 112.¦ 52.34 138.¦ 59.15 113.¦ ¦ ¦ 3:10.48 47.¦ 4:31.22 54.¦ 5:32.26 54.¦ 5:33.41 53.¦ 6:19.59 53.¦ 7:39.35 64.¦ 8:32.09 73.¦ 9:31.25 80.¦
81. Enzler Markus 1972 Busswil b. Büren 9:32.02,7 2:35.24,6 (1271) diplôme foto V-H-Over 253. 13,110 ¦ 1:42.16 57.¦ 1:30.14 49.¦ 1:21.35 72.¦ 1:06.24 123.¦ 1.08 49.¦ 50.27 102.¦ 1:13.03 79.¦ 48.17 110.¦ 58.35 108.¦ Team Stöckli ¦ ¦ 3:12.30 53.¦ 4:34.05 59.¦ 5:40.30 69.¦ 5:41.38 68.¦ 6:32.06 69.¦ 7:45.09 68.¦ 8:33.27 74.¦ 9:32.02 81.¦
82. Apfelbaum Markus 1967 D-Aachen 9:32.15,1 2:35.37,0 (1301) diplôme foto V-H-Over 254. 13,106 ¦ 1:50.22 105.¦ 1:35.47 81.¦ 1:23.16 79.¦ 1:00.22 65.¦ 1.09 60.¦ 49.28 87.¦ 1:13.35 82.¦ 45.55 92.¦ 52.15 64.¦ Früh Kölsch Aachen ¦ ¦ 3:26.10 94.¦ 4:49.26 85.¦ 5:49.49 82.¦ 5:50.59 81.¦ 6:40.28 82.¦ 7:54.04 82.¦ 8:39.59 83.¦ 9:32.15 82.¦
83. Ory Gérard 1970 Bassecourt 9:32.25,3 2:35.47,2 (1725) diplôme foto V-H-Over 255. 13,102 ¦ 1:45.43 76.¦ 1:35.12 78.¦ 1:20.42 69.¦ 1:03.41 104.¦ 1.07 41.¦ 50.58 106.¦ 1:08.00 56.¦ 48.37 114.¦ 58.22 104.¦ Team Tabourat ¦ ¦ 3:20.56 74.¦ 4:41.38 71.¦ 5:45.19 75.¦ 5:46.27 73.¦ 6:37.25 78.¦ 7:45.25 70.¦ 8:34.02 75.¦ 9:32.25 83.¦
84. Boillat Sébastien 1968 Muriaux 9:33.04,6 2:36.26,5 (1369) diplôme foto V-H-Over 257. 13,087 ¦ 1:46.03 80.¦ 1:35.01 77.¦ 1:21.09 70.¦ 59.07 48.¦ 1.30 161.¦ 48.06 74.¦ 1:22.24 125.¦ 46.09 94.¦ 53.31 71.¦ Le Noirmont VTT Club ¦ ¦ 3:21.05 75.¦ 4:42.14 73.¦ 5:41.22 71.¦ 5:42.52 70.¦ 6:30.59 67.¦ 7:53.23 81.¦ 8:39.32 82.¦ 9:33.04 84.¦
85. Chauveau Patrick 1965 Genève 9:35.39,2 2:39.01,1 (1291) diplôme foto V-H-Over 261. 13,028 ¦ 1:45.34 75.¦ 1:33.45 68.¦ 1:25.21 92.¦ 1:04.18 105.¦ 1.20 120.¦ 54.00 137.¦ 1:21.19 117.¦ 39.07 25.¦ 50.50 54.¦ Stromer/BMC Genève ¦ ¦ 3:19.20 69.¦ 4:44.41 78.¦ 5:49.00 81.¦ 5:50.21 80.¦ 6:44.21 87.¦ 8:05.41 91.¦ 8:44.48 85.¦ 9:35.39 85.¦
86. Maillard Frédéric 1971 Bulle 9:36.04,2 2:39.26,1 (1384) diplôme foto V-H-Over 263. 13,019 ¦ 1:54.41 139.¦ 1:41.32 120.¦ 1:30.00 122.¦ 1:02.47 95.¦ 1.14 84.¦ 49.01 83.¦ 1:07.34 52.¦ 40.04 36.¦ 49.08 38.¦ ¦ ¦ 3:36.14 126.¦ 5:06.14 126.¦ 6:09.01 121.¦ 6:10.16 120.¦ 6:59.17 114.¦ 8:06.52 92.¦ 8:46.56 90.¦ 9:36.04 86.¦
87. Pacios Pujado Vicenç 1972 E-Sabadell 9:36.37,7 2:39.59,6 (89) diplôme foto V-H-Over 265. 13,006 ¦ 1:55.27 145.¦ 1:43.10 123.¦ 1:26.59 98.¦ 59.19 52.¦ 1.11 66.¦ 49.36 91.¦ 1:08.37 60.¦ 42.35 60.¦ 49.40 45.¦ Trek Store Bicisprint ¦ ¦ 3:38.37 136.¦ 5:05.37 123.¦ 6:04.56 110.¦ 6:06.07 109.¦ 6:55.44 108.¦ 8:04.21 86.¦ 8:46.57 91.¦ 9:36.37 87.¦
88. Schena Mario 1970 Alvaneu Dorf 9:38.51,6 2:42.13,5 (1711) diplôme foto V-H-Over 267. 12,956 ¦ 1:52.56 122.¦ 1:37.29 90.¦ 1:29.12 116.¦ 1:03.06 99.¦ 1.22 130.¦ 47.50 70.¦ 1:13.38 83.¦ 40.23 40.¦ 52.53 68.¦ ¦ ¦ 3:30.25 105.¦ 4:59.37 108.¦ 6:02.43 102.¦ 6:04.06 102.¦ 6:51.56 99.¦ 8:05.34 90.¦ 8:45.58 88.¦ 9:38.51 88.¦
89. Droz Romain 1973 Tramelan 9:39.24,0 2:42.45,9 (1307) diplôme foto V-H-Over 269. 12,944 ¦ 1:49.16 97.¦ 1:38.40 95.¦ 1:22.28 75.¦ 1:00.27 67.¦ 1.21 124.¦ 49.58 94.¦ 1:15.05 91.¦ 47.42 106.¦ 54.24 76.¦ ¦ ¦ 3:27.56 97.¦ 4:50.25 88.¦ 5:50.52 86.¦ 5:52.14 85.¦ 6:42.12 85.¦ 7:57.17 85.¦ 8:44.59 86.¦ 9:39.24 89.¦
90. Zimmermann Bruno 1969 Villmergen 9:42.46,8 2:46.08,7 (1552) diplôme foto V-H-Over 279. 12,869 ¦ 1:41.30 51.¦ 1:32.30 62.¦ 1:28.34 112.¦ 1:01.10 75.¦ 1.13 77.¦ 52.59 128.¦ 1:18.49 108.¦ 49.05 118.¦ 56.54 92.¦ ¦ ¦ 3:14.01 56.¦ 4:42.35 74.¦ 5:43.45 72.¦ 5:44.59 71.¦ 6:37.58 80.¦ 7:56.47 84.¦ 8:45.52 87.¦ 9:42.46 90.¦
91. Bleuler Reto 1971 Mümliswil 9:45.45,0 2:49.06,9 (1347) diplôme foto V-H-Over 286. 12,804 ¦ 1:45.55 79.¦ 1:38.01 93.¦ 1:27.52 109.¦ 1:01.31 81.¦ 1.15 89.¦ 51.40 116.¦ 1:24.01 132.¦ 43.06 68.¦ 52.20 65.¦ Alpiq Triple Power ¦ ¦ 3:23.57 89.¦ 4:51.49 91.¦ 5:53.21 90.¦ 5:54.36 89.¦ 6:46.16 90.¦ 8:10.17 100.¦ 8:53.24 94.¦ 9:45.45 91.¦
92. Osmers Jürgen 1968 D-Witzenhausen 9:46.37,3 2:49.59,2 (1343) diplôme foto V-H-Over 289. 12,785 ¦ 1:52.26 119.¦ 1:41.07 114.¦ 1:29.21 117.¦ 1:01.28 80.¦ 1.27 150.¦ 50.14 97.¦ 1:15.29 93.¦ 43.29 73.¦ 51.33 57.¦ ¦ ¦ 3:33.33 118.¦ 5:02.55 117.¦ 6:04.23 109.¦ 6:05.51 108.¦ 6:56.05 109.¦ 8:11.34 102.¦ 8:55.03 97.¦ 9:46.37 92.¦
93. Cornu Claude-Alain 1971 Chanéaz 9:46.40,3 2:50.02,2 (1365) diplôme foto V-H-Over 290. 12,783 ¦ 1:53.33 129.¦ 1:44.02 129.¦ 1:27.33 107.¦ 1:01.22 78.¦ 1.14 87.¦ 51.16 111.¦ 1:10.13 65.¦ 45.21 89.¦ 52.02 62.¦ Alarca ¦ ¦ 3:37.35 129.¦ 5:05.09 119.¦ 6:06.31 112.¦ 6:07.46 110.¦ 6:59.02 112.¦ 8:09.16 96.¦ 8:54.37 96.¦ 9:46.40 93.¦
94. Baume Pierrot 1966 Les Breuleux 9:47.25,4 2:50.47,3 (1498) diplôme foto V-H-Over 292. 12,767 ¦ 1:53.26 126.¦ 1:39.49 105.¦ 1:27.26 105.¦ 1:02.42 93.¦ 1.27 145.¦ 50.16 99.¦ 1:12.22 74.¦ 43.48 76.¦ 56.07 88.¦ ¦ ¦ 3:33.15 113.¦ 5:00.42 110.¦ 6:03.24 106.¦ 6:04.51 106.¦ 6:55.07 107.¦ 8:07.30 93.¦ 8:51.18 93.¦ 9:47.25 94.¦
95. Reynaud Pascal 1968 St-Aubin FR 9:47.59,6 2:51.21,5 (1360) diplôme foto V-H-Over 295. 12,755 ¦ 1:51.40 113.¦ 1:37.39 91.¦ 1:25.40 93.¦ 1:00.09 60.¦ 1.12 74.¦ 53.44 134.¦ 1:21.35 120.¦ 44.41 87.¦ 51.35 58.¦ ¦ ¦ 3:29.19 102.¦ 4:55.00 96.¦ 5:55.09 91.¦ 5:56.22 90.¦ 6:50.07 97.¦ 8:11.42 103.¦ 8:56.23 99.¦ 9:47.59 95.¦
96. Türler Thomas 1967 Herrliberg 9:48.44,5 2:52.06,4 (1729) diplôme foto V-H-Over 297. 12,739 ¦ 1:51.06 108.¦ 1:41.04 113.¦ 1:21.46 73.¦ 1:09.07 139.¦ 1.15 92.¦ 48.58 81.¦ 1:11.29 71.¦ 42.51 66.¦ 1:01.04 121.¦ LC Meilen Tri ¦ ¦ 3:32.11 111.¦ 4:53.57 94.¦ 6:03.04 104.¦ 6:04.20 104.¦ 6:53.19 105.¦ 8:04.48 88.¦ 8:47.40 92.¦ 9:48.44 96.¦
97. Denarier Massimo 1965 I-Aosta (AO) 9:49.07,9 2:52.29,8 (40) diplôme foto V-H-Over 298. 12,730 ¦ 1:52.27 120.¦ 1:41.00 111.¦ 1:27.23 104.¦ 1:00.12 61.¦ 1.16 99.¦ 50.40 104.¦ 1:16.43 99.¦ 43.56 78.¦ 55.26 82.¦ ASD ORANGE BIKE TEAM ¦ ¦ 3:33.28 116.¦ 5:00.51 111.¦ 6:01.03 101.¦ 6:02.20 100.¦ 6:53.00 103.¦ 8:09.44 99.¦ 8:53.41 95.¦ 9:49.07 97.¦
98. Waser Gilbert 1969 Luzern 9:49.52,2 2:53.14,1 (1743) diplôme foto V-H-Over 300. 12,714 ¦ 1:53.12 124.¦ 1:40.18 107.¦ 1:25.08 91.¦ 1:05.18 113.¦ 1.08 46.¦ 44.57 44.¦ 1:14.26 89.¦ 42.16 54.¦ 1:03.05 133.¦ GW-Grössenwahn ¦ ¦ 3:33.30 117.¦ 4:58.39 106.¦ 6:03.58 108.¦ 6:05.06 107.¦ 6:50.03 96.¦ 8:04.30 87.¦ 8:46.46 89.¦ 9:49.52 98.¦
99. Kugler Reto 1971 St. Gallen 9:53.51,5 2:57.13,4 (1609) diplôme foto V-H-Over 307. 12,629 ¦ 1:45.17 72.¦ 1:38.59 97.¦ 1:30.56 126.¦ 1:04.34 107.¦ 1.15 88.¦ 51.13 109.¦ 1:20.41 115.¦ 43.25 72.¦ 57.27 96.¦ ¦ ¦ 3:24.17 90.¦ 4:55.13 97.¦ 5:59.48 100.¦ 6:01.03 99.¦ 6:52.17 102.¦ 8:12.58 104.¦ 8:56.24 100.¦ 9:53.51 99.¦
100. Bosler Hansjörg 1967 D-Hohenschäftlarn 9:54.15,2 2:57.37,1 (1710) diplôme foto V-H-Over 308. 12,620 ¦ 1:54.25 136.¦ 1:41.01 112.¦ 1:27.01 99.¦ 1:00.36 69.¦ 0.49 3.¦ 48.08 75.¦ 1:15.58 94.¦ 48.21 111.¦ 57.51 98.¦ Feine Fahrräder München ¦ ¦ 3:35.26 123.¦ 5:02.28 113.¦ 6:03.04 104.¦ 6:03.54 101.¦ 6:52.03 100.¦ 8:08.01 94.¦ 8:56.23 98.¦ 9:54.15 100.¦
101. Disler Georg 1974 Balsthal 9:54.50,7 2:58.12,6 (1341) diplôme foto V-H-Over 309. 12,608 ¦ 1:44.09 68.¦ 1:37.19 87.¦ 1:29.23 118.¦ 1:02.19 90.¦ 1.18 107.¦ 51.55 117.¦ 1:27.34 152.¦ 47.43 107.¦ 53.06 70.¦ Alpiq Triple Power ¦ ¦ 3:21.29 76.¦ 4:50.52 89.¦ 5:53.12 89.¦ 5:54.31 88.¦ 6:46.26 91.¦ 8:14.01 106.¦ 9:01.44 106.¦ 9:54.50 101.¦
102. Audebrand David 1971 F-Pringy 9:55.00,8 2:58.22,7 (1529) diplôme foto V-H-Over 310. 12,604 ¦ 1:44.17 69.¦ 1:40.53 110.¦ 1:31.31 131.¦ 1:01.14 76.¦ 1.16 98.¦ 49.14 86.¦ 1:20.46 116.¦ 48.40 115.¦ 57.05 93.¦ La Coppandy ¦ ¦ 3:25.10 92.¦ 4:56.42 100.¦ 5:57.57 96.¦ 5:59.14 95.¦ 6:48.28 95.¦ 8:09.15 95.¦ 8:57.55 101.¦ 9:55.00 102.¦
103. Paul Christian 1967 Verbier 9:57.51,0 3:01.12,9 (41) diplôme foto V-H-Over 315. 12,544 ¦ 1:36.53 25.¦ 1:31.30 51.¦ 1:23.06 78.¦ 1:01.33 82.¦ 1.29 159.¦ 51.14 110.¦ 1:47.29 173.¦ 46.22 96.¦ 58.11 101.¦ BikeClubVerbier ¦ ¦ 3:08.23 40.¦ 4:31.30 55.¦ 5:33.03 56.¦ 5:34.32 55.¦ 6:25.47 64.¦ 8:13.16 105.¦ 8:59.39 103.¦ 9:57.51 103.¦
104. Ulrich Roland 1966 La Tour-de-Peilz 9:59.13,7 3:02.35,6 (1692) diplôme foto V-H-Over 323. 12,516 ¦ 1:52.03 116.¦ 1:39.15 103.¦ 1:25.57 95.¦ 1:02.16 89.¦ 1.16 95.¦ 52.30 123.¦ 1:24.22 137.¦ 47.33 105.¦ 53.57 74.¦ ¦ ¦ 3:31.19 108.¦ 4:57.16 102.¦ 5:59.33 98.¦ 6:00.49 97.¦ 6:53.19 106.¦ 8:17.42 110.¦ 9:05.16 107.¦ 9:59.13 104.¦
105. Gerber Cédric 1974 Maracon 10:03.42,6 3:07.04,5 (1220) diplôme foto V-H-Over 330. 12,423 ¦ 1:51.34 112.¦ 1:36.15 83.¦ 1:34.54 146.¦ 1:06.04 121.¦ 1.25 141.¦ 52.11 118.¦ 1:23.54 131.¦ 45.27 90.¦ 51.55 60.¦ Team Teysalpi ¦ ¦ 3:27.49 96.¦ 5:02.43 115.¦ 6:08.48 119.¦ 6:10.14 118.¦ 7:02.25 117.¦ 8:26.19 120.¦ 9:11.46 115.¦10:03.42 105.¦
106. Chenaux Nicolas 1970 Châtonnaye 10:05.28,8 3:08.50,7 (1761) diplôme foto V-H-Over 333. 12,386 ¦ 2:05.11 183.¦ 1:47.44 149.¦ 1:28.31 111.¦ 1:01.23 79.¦ 2.44 185.¦ 47.26 68.¦ 1:13.28 81.¦ 43.50 77.¦ 55.08 81.¦ VC Estavayer Team Tesag UVEX ¦ ¦ 3:52.55 166.¦ 5:21.26 150.¦ 6:22.50 137.¦ 6:25.34 136.¦ 7:13.01 127.¦ 8:26.29 121.¦ 9:10.20 113.¦10:05.28 106.¦
107. Schmied Yves 1971 Berlens 10:06.34,3 3:09.56,2 (44) diplôme foto V-H-Over 335. 12,364 ¦ 1:49.18 99.¦ 1:38.59 98.¦ 1:26.36 96.¦ 1:02.14 88.¦ 1.26 143.¦ 52.42 126.¦ 1:28.39 157.¦ 49.17 119.¦ 57.19 95.¦ TESAG UVEX ¦ ¦ 3:28.18 99.¦ 4:54.55 95.¦ 5:57.09 94.¦ 5:58.35 93.¦ 6:51.18 98.¦ 8:19.57 112.¦ 9:09.14 111.¦10:06.34 107.¦
108. Astner Leonard 1967 A-Gnadenwald 10:07.00,1 3:10.22,0 (1757) diplôme foto V-H-Over 336. 12,355 ¦ 1:48.34 94.¦ 1:41.13 115.¦ 1:28.44 115.¦ 1:08.46 137.¦ 1.23 137.¦ 53.48 135.¦ 1:21.34 119.¦ 42.48 64.¦ 1:00.05 116.¦ ¦ ¦ 3:29.48 103.¦ 4:58.32 105.¦ 6:07.19 114.¦ 6:08.43 113.¦ 7:02.31 118.¦ 8:24.06 115.¦ 9:06.54 108.¦10:07.00 108.¦
109. Beeler Yannis 1972 Cudrefin 10:07.02,8 3:10.24,7 (1402) diplôme foto V-H-Over 337. 12,354 ¦ 1:58.36 156.¦ 1:49.04 159.¦ 1:27.38 108.¦ 1:09.17 142.¦ 1.21 124.¦ 48.30 78.¦ 1:10.39 66.¦ 44.11 79.¦ 57.43 97.¦ Follow Me Cudrefin ¦ ¦ 3:47.41 156.¦ 5:15.19 138.¦ 6:24.37 140.¦ 6:25.58 137.¦ 7:14.28 130.¦ 8:25.08 117.¦ 9:09.19 112.¦10:07.02 109.¦
110. Bagnoud Fabrice 1967 Chermignon 10:07.10,8 3:10.32,7 (1437) diplôme foto V-H-Over 338. 12,352 ¦ 1:51.16 109.¦ 1:41.41 121.¦ 1:29.52 120.¦ 1:05.57 119.¦ 1.27 151.¦ 54.56 143.¦ 1:17.21 103.¦ 50.43 129.¦ 53.53 73.¦ GB Bike ¦ ¦ 3:32.58 112.¦ 5:02.50 116.¦ 6:08.47 118.¦ 6:10.15 119.¦ 7:05.11 120.¦ 8:22.33 114.¦ 9:13.17 117.¦10:07.10 110.¦
111. Theuns Enrico 1965 NL-Drunen 10:08.39,1 3:12.01,0 (51) diplôme foto V-H-Over 342. 12,322 ¦ 1:53.37 132.¦ 1:47.44 150.¦ 1:27.02 100.¦ 1:06.34 124.¦ 1.22 126.¦ 51.05 108.¦ 1:18.11 104.¦ 47.14 103.¦ 55.46 85.¦ The Whoopers ¦ ¦ 3:41.22 146.¦ 5:08.25 129.¦ 6:14.59 128.¦ 6:16.21 127.¦ 7:07.26 122.¦ 8:25.38 118.¦ 9:12.52 116.¦10:08.39 111.¦
112. Jufer Jacques-Henri 1973 Bévilard 10:13.02,9 3:16.24,8 (1292) diplôme foto V-H-Over 348. 12,233 ¦ 1:50.27 106.¦ 1:44.11 131.¦ 1:22.48 77.¦ 1:11.23 159.¦ 1.22 127.¦ 53.53 136.¦ 1:13.14 80.¦ 49.47 125.¦ 1:05.53 142.¦ Alouettes.ch ¦ ¦ 3:34.39 120.¦ 4:57.28 103.¦ 6:08.51 120.¦ 6:10.13 117.¦ 7:04.07 119.¦ 8:17.21 109.¦ 9:07.09 109.¦10:13.02 112.¦
113. Hulsbergen Jan 1970 NL-Vught 10:13.14,5 3:16.36,4 (1599) diplôme foto V-H-Over 349. 12,230 ¦ 1:56.40 149.¦ 1:41.19 116.¦ 1:27.10 102.¦ 1:03.14 100.¦ 1.19 115.¦ 46.48 63.¦ 1:12.56 77.¦ 51.43 134.¦ 1:12.02 156.¦ ¦ ¦ 3:37.59 131.¦ 5:05.09 120.¦ 6:08.24 115.¦ 6:09.44 115.¦ 6:56.32 110.¦ 8:09.28 98.¦ 9:01.11 105.¦10:13.14 113.¦
114. Crookes Greg 1969 NL-Amsterdam 10:13.15,1 3:16.37,0 (1600) diplôme foto V-H-Over 350. 12,229 ¦ 1:56.44 150.¦ 1:41.30 119.¦ 1:26.55 97.¦ 1:03.15 101.¦ 1.19 109.¦ 46.54 66.¦ 1:12.44 76.¦ 49.44 122.¦ 1:14.06 161.¦ Gaul! ¦ ¦ 3:38.14 134.¦ 5:05.09 121.¦ 6:08.25 116.¦ 6:09.44 116.¦ 6:56.39 111.¦ 8:09.23 97.¦ 8:59.08 102.¦10:13.15 114.¦
115. Armanini Hervé 1972 F-Chilly 10:15.41,6 3:19.03,5 (1533) diplôme foto V-H-Over 354. 12,181 ¦ 1:54.15 135.¦ 1:43.51 127.¦ 1:29.58 121.¦ 1:01.42 84.¦ 1.08 46.¦ 51.02 107.¦ 1:22.51 127.¦ 52.43 139.¦ 58.08 100.¦ ¦ ¦ 3:38.07 133.¦ 5:08.05 128.¦ 6:09.48 122.¦ 6:10.56 121.¦ 7:01.59 116.¦ 8:24.50 116.¦ 9:17.33 119.¦10:15.41 115.¦
116. Folly Laurent 1972 Bulle 10:17.02,5 3:20.24,4 (1502) diplôme foto V-H-Over 359. 12,154 ¦ 1:45.19 73.¦ 1:37.12 86.¦ 1:25.00 90.¦ 1:08.37 134.¦ 1.15 93.¦ 50.42 105.¦ 1:26.22 147.¦ 53.03 141.¦ 1:09.28 152.¦ ¦ ¦ 3:22.32 81.¦ 4:47.33 82.¦ 5:56.10 93.¦ 5:57.26 92.¦ 6:48.08 94.¦ 8:14.30 107.¦ 9:07.34 110.¦10:17.02 116.¦
117. Montez Martino 1971 P-Alcanede 10:17.33,0 3:20.54,9 (61) diplôme foto V-H-Over 360. 12,144 ¦ 1:53.30 128.¦ 1:45.27 138.¦ 1:33.09 137.¦ 1:08.29 133.¦ 1.17 105.¦ 53.24 131.¦ 1:18.14 105.¦ 44.19 82.¦ 59.40 115.¦ ADAR OFIMOTO ¦ ¦ 3:38.57 137.¦ 5:12.06 135.¦ 6:20.36 132.¦ 6:21.53 131.¦ 7:15.18 132.¦ 8:33.32 124.¦ 9:17.52 120.¦10:17.33 117.¦
118. Lutter Robin 1973 D-Dresden 10:17.48,3 3:21.10,2 (1595) diplôme foto V-H-Over 362. 12,139 ¦ 1:54.02 134.¦ 1:45.16 136.¦ 1:33.11 138.¦ 1:05.26 114.¦ 0.44 1.¦ 55.58 145.¦ 1:20.07 114.¦ 48.23 112.¦ 54.36 78.¦ Dresdner SC 1889 ¦ ¦ 3:39.19 139.¦ 5:12.30 136.¦ 6:17.57 129.¦ 6:18.41 128.¦ 7:14.39 131.¦ 8:34.47 126.¦ 9:23.11 127.¦10:17.48 118.¦
119. Grütter Stephan 1972 Breitenbach 10:17.58,1 3:21.20,0 (1730) diplôme foto V-H-Over 363. 12,136 ¦ 1:52.18 117.¦ 1:39.06 99.¦ 1:21.09 70.¦ 1:10.14 150.¦ 1.19 112.¦ 48.06 73.¦ 1:19.17 111.¦ 49.22 120.¦ 1:17.02 164.¦ Team Stöckli ¦ ¦ 3:31.25 109.¦ 4:52.35 93.¦ 6:02.50 103.¦ 6:04.09 103.¦ 6:52.15 101.¦ 8:11.33 101.¦ 9:00.55 104.¦10:17.58 119.¦
120. Nel Paul 1971 RSA-Durbanville 10:18.43,2 3:22.05,1 (60) diplôme foto V-H-Over 364. 12,121 ¦ 1:47.01 85.¦ 1:43.32 125.¦ 1:32.00 134.¦ 1:05.56 118.¦ 1.09 53.¦ 49.34 89.¦ 1:21.57 121.¦ 54.43 151.¦ 1:02.47 130.¦ ¦ ¦ 3:30.33 106.¦ 5:02.34 114.¦ 6:08.30 117.¦ 6:09.39 114.¦ 6:59.14 113.¦ 8:21.11 113.¦ 9:15.55 118.¦10:18.43 120.¦
121. Michiels Erik 1971 B-Affligem 10:21.19,1 3:24.41,0 (1732) diplôme foto V-H-Over 369. 12,071 ¦ 1:50.05 103.¦ 1:40.38 108.¦ 1:18.09 51.¦ 1:07.07 128.¦ 1.12 75.¦ 49.53 93.¦ 1:29.47 159.¦ 54.40 149.¦ 1:09.44 154.¦ ¦ ¦ 3:30.44 107.¦ 4:48.53 84.¦ 5:56.00 92.¦ 5:57.13 91.¦ 6:47.06 92.¦ 8:16.54 108.¦ 9:11.34 114.¦10:21.19 121.¦
122. Schaegis Daniel 1969 F-Wintzfelden 10:21.30,1 3:24.52,0 (1591) diplôme foto V-H-Over 371. 12,067 ¦ 1:55.25 143.¦ 1:45.21 137.¦ 1:30.32 125.¦ 1:10.12 149.¦ 1.34 170.¦ 54.29 141.¦ 1:16.34 97.¦ 45.05 88.¦ 1:02.14 127.¦ ¦ ¦ 3:40.46 142.¦ 5:11.19 133.¦ 6:21.31 136.¦ 6:23.06 135.¦ 7:17.35 135.¦ 8:34.10 125.¦ 9:19.15 122.¦10:21.30 122.¦
123. Lehmacher Michael 1969 Vandoeuvres 10:21.55,6 3:25.17,5 (1661) diplôme foto V-H-Over 372. 12,059 ¦ 1:54.32 138.¦ 1:43.29 124.¦ 1:30.59 127.¦ 1:09.18 143.¦ 1.27 146.¦ 53.14 130.¦ 1:16.09 95.¦ 51.06 131.¦ 1:01.37 125.¦ ¦ ¦ 3:38.01 132.¦ 5:09.01 130.¦ 6:18.19 130.¦ 6:19.47 129.¦ 7:13.01 128.¦ 8:29.11 122.¦ 9:20.18 123.¦10:21.55 123.¦
124. Vuilleumier Brian 1971 Les Reussilles 10:22.54,2 3:26.16,1 (1356) diplôme foto V-H-Over 376. 12,040 ¦ 1:50.03 102.¦ 1:40.14 106.¦ 1:34.58 147.¦ 1:05.44 116.¦ 1.23 134.¦ 54.24 139.¦ 1:24.03 134.¦ 49.46 124.¦ 1:02.14 128.¦ ¦ ¦ 3:30.18 104.¦ 5:05.16 122.¦ 6:11.01 125.¦ 6:12.24 124.¦ 7:06.49 121.¦ 8:30.52 123.¦ 9:20.39 124.¦10:22.54 124.¦
125. Hubert Michel 1970 Orsières 10:23.48,1 3:27.10,0 (1493) diplôme foto V-H-Over 378. 12,023 ¦ 1:53.21 125.¦ 1:46.52 143.¦ 1:30.10 124.¦ 1:09.54 148.¦ 1.17 103.¦ 52.46 127.¦ 1:25.59 144.¦ 42.17 55.¦ 1:01.09 122.¦ ¦ ¦ 3:40.14 140.¦ 5:10.24 131.¦ 6:20.18 131.¦ 6:21.35 130.¦ 7:14.21 129.¦ 8:40.21 129.¦ 9:22.38 126.¦10:23.48 125.¦
126. Noegelen Fabian 1973 F-Buhl 10:25.56,2 3:29.18,1 (1590) diplôme foto V-H-Over 382. 11,982 ¦ 1:53.33 131.¦ 1:39.44 104.¦ 1:24.48 89.¦ 1:08.45 135.¦ 1.15 94.¦ 51.29 113.¦ 1:26.21 146.¦ 53.06 142.¦ 1:06.52 148.¦ ¦ ¦ 3:33.17 114.¦ 4:58.06 104.¦ 6:06.51 113.¦ 6:08.06 111.¦ 6:59.36 115.¦ 8:25.57 119.¦ 9:19.03 121.¦10:25.56 126.¦
127. Malcorps Philip 1971 B-Herentals 10:26.47,9 3:30.09,8 (1380) diplôme foto V-H-Over 384. 11,965 ¦ 1:52.02 115.¦ 1:41.22 117.¦ 1:27.11 103.¦ 1:02.58 96.¦ 1.11 68.¦ 48.32 79.¦ 1:26.29 148.¦ 1:01.06 161.¦ 1:05.53 142.¦ Hertals Bikers ¦ ¦ 3:33.24 115.¦ 5:00.35 109.¦ 6:03.33 107.¦ 6:04.45 105.¦ 6:53.18 104.¦ 8:19.47 111.¦ 9:20.54 125.¦10:26.47 127.¦
128. Barras Stève 1967 Chermignon 10:27.37,3 3:30.59,2 (1381) diplôme foto V-H-Over 387. 11,949 ¦ 1:56.06 148.¦ 1:47.54 153.¦ 1:31.57 132.¦ 1:04.56 111.¦ 1.09 56.¦ 54.44 142.¦ 1:24.18 135.¦ 52.01 135.¦ 54.29 77.¦ GB bike ¦ ¦ 3:44.01 147.¦ 5:15.58 139.¦ 6:20.55 135.¦ 6:22.04 132.¦ 7:16.48 134.¦ 8:41.06 130.¦ 9:33.08 132.¦10:27.37 128.¦
129. Crettex René 1968 Ravoire 10:28.35,1 3:31.57,0 (1387) diplôme foto V-H-Over 390. 11,931 ¦ 1:49.17 98.¦ 1:42.43 122.¦ 1:33.49 140.¦ 1:04.48 110.¦ 1.21 123.¦ 1:00.10 173.¦ 1:32.58 165.¦ 44.17 81.¦ 59.08 112.¦ Team La Trace ¦ ¦ 3:32.01 110.¦ 5:05.50 124.¦ 6:10.39 123.¦ 6:12.00 122.¦ 7:12.10 125.¦ 8:45.09 134.¦ 9:29.26 129.¦10:28.35 129.¦
130. Trenner Martin 1969 Frieswil 10:31.54,9 3:35.16,8 (1348) diplôme foto V-H-Over 395. 11,868 ¦ 1:56.57 152.¦ 1:44.05 130.¦ 1:29.49 119.¦ 1:09.53 147.¦ 1.19 112.¦ 54.27 140.¦ 1:23.04 128.¦ 51.41 133.¦ 1:00.37 118.¦ Alpengroove ¦ ¦ 3:41.02 144.¦ 5:10.51 132.¦ 6:20.44 133.¦ 6:22.04 132.¦ 7:16.31 133.¦ 8:39.36 128.¦ 9:31.17 131.¦10:31.54 130.¦
131. Daucourt Gaetan 1973 Courgenay 10:34.01,8 3:37.23,7 (1702) diplôme foto V-H-Over 401. 11,829 ¦ 1:50.37 107.¦ 1:45.10 135.¦ 1:28.39 114.¦ 1:23.31 195.¦ 1.19 109.¦ 49.51 92.¦ 1:19.06 110.¦ 51.06 130.¦ 1:04.39 139.¦ ¦ ¦ 3:35.48 125.¦ 5:04.27 118.¦ 6:27.59 144.¦ 6:29.18 142.¦ 7:19.09 136.¦ 8:38.16 127.¦ 9:29.22 128.¦10:34.01 131.¦
132. Keller Matthias 1967 Schlosswil 10:34.42,7 3:38.04,6 (1763) diplôme foto V-H-Over 403. 11,816 ¦ 1:54.29 137.¦ 1:46.43 142.¦ 1:36.36 152.¦ 1:03.03 98.¦ 1.34 169.¦ 56.45 154.¦ 1:29.51 160.¦ 50.42 128.¦ 54.56 79.¦ ¦ ¦ 3:41.12 145.¦ 5:17.49 143.¦ 6:20.52 134.¦ 6:22.27 134.¦ 7:19.12 137.¦ 8:49.03 136.¦ 9:39.46 137.¦10:34.42 132.¦
133. Fahrni Jerry 1971 La Chaux-de-Fonds 10:37.29,8 3:40.51,7 (1420) diplôme foto V-H-Over 407. 11,764 ¦ 1:53.33 130.¦ 1:47.27 148.¦ 1:36.02 151.¦ 1:09.49 146.¦ 1.29 157.¦ 52.22 120.¦ 1:21.29 118.¦ 48.58 117.¦ 1:06.16 145.¦ Dream Team Club 2013 ¦ ¦ 3:41.00 143.¦ 5:17.03 142.¦ 6:26.53 143.¦ 6:28.22 141.¦ 7:20.44 138.¦ 8:42.14 132.¦ 9:31.13 130.¦10:37.29 133.¦
134. Robert Claude 1965 Peseux 10:38.15,3 3:41.37,2 (1756) diplôme foto V-H-Over 409. 11,750 ¦ 2:01.34 171.¦ 1:49.42 162.¦ 1:27.56 110.¦ 1:10.35 154.¦ 1.20 120.¦ 53.02 129.¦ 1:18.22 107.¦ 52.43 140.¦ 1:02.56 132.¦ ¦ ¦ 3:51.17 165.¦ 5:19.13 144.¦ 6:29.49 146.¦ 6:31.10 144.¦ 7:24.13 140.¦ 8:42.35 133.¦ 9:35.19 134.¦10:38.15 134.¦
135. Baron Jan 1972 B-Walshoutem 10:40.27,4 3:43.49,3 (1592) diplôme foto V-H-Over 410. 11,710 ¦ 1:44.05 66.¦ 1:39.14 101.¦ 1:38.45 157.¦ 1:09.37 145.¦ 1.13 78.¦ 58.47 163.¦ 1:29.55 161.¦ 55.19 153.¦ 1:03.29 134.¦ ¦ ¦ 3:23.19 88.¦ 5:02.05 112.¦ 6:11.42 126.¦ 6:12.55 125.¦ 7:11.43 123.¦ 8:41.38 131.¦ 9:36.58 136.¦10:40.27 135.¦
136. Mora Fulgencio 1972 Locarno 10:41.11,8 3:44.33,7 (1545) diplôme foto V-H-Over 412. 11,696 ¦ 2:03.33 177.¦ 1:51.52 168.¦ 1:35.13 148.¦ 1:04.19 106.¦ 1.22 128.¦ 52.21 119.¦ 1:24.27 139.¦ 47.51 108.¦ 1:00.11 117.¦ Tri Team Ticino ¦ ¦ 3:55.26 174.¦ 5:30.39 160.¦ 6:34.58 151.¦ 6:36.20 149.¦ 7:28.41 143.¦ 8:53.09 139.¦ 9:41.00 138.¦10:41.11 136.¦
137. Montandon Alain 1965 Les Breuleux 10:43.38,6 3:47.00,5 (1500) diplôme foto V-H-Over 417. 11,652 ¦ 1:52.23 118.¦ 1:53.13 175.¦ 1:31.23 130.¦ 1:14.18 170.¦ 1.19 111.¦ 57.37 159.¦ 1:19.45 113.¦ 46.47 99.¦ 1:06.51 147.¦ ¦ ¦ 3:45.36 149.¦ 5:16.59 141.¦ 6:31.17 147.¦ 6:32.37 145.¦ 7:30.14 145.¦ 8:49.59 137.¦ 9:36.46 135.¦10:43.38 137.¦
138. Monney Serge 1971 Pully 10:44.32,9 3:47.54,8 (1390) diplôme foto V-H-Over 419. 11,636 ¦ 2:02.08 172.¦ 1:47.47 152.¦ 1:30.07 123.¦ 1:15.56 178.¦ 1.12 71.¦ 52.25 122.¦ 1:16.41 98.¦ 48.34 113.¦ 1:09.39 153.¦ ¦ ¦ 3:49.56 164.¦ 5:20.03 147.¦ 6:36.00 152.¦ 6:37.12 150.¦ 7:29.37 144.¦ 8:46.19 135.¦ 9:34.53 133.¦10:44.32 138.¦
139. Juillerat Sébastien 1974 Moutier 10:45.49,2 3:49.11,1 (1404) diplôme foto V-H-Over 422. 11,613 ¦ 2:00.26 167.¦ 1:49.23 160.¦ 1:34.19 142.¦ 1:10.28 152.¦ 1.25 139.¦ 56.13 147.¦ 1:27.05 150.¦ 46.59 101.¦ 59.28 114.¦ ¦ ¦ 3:49.49 163.¦ 5:24.08 153.¦ 6:34.37 150.¦ 6:36.02 148.¦ 7:32.16 147.¦ 8:59.21 143.¦ 9:46.21 139.¦10:45.49 139.¦
140. Fragnière Bruno 1965 La Tour-de-Peilz 10:54.52,7 3:58.14,6 (1376) diplôme foto V-H-Over 436. 11,452 ¦ 2:00.48 169.¦ 1:47.05 146.¦ 1:38.32 155.¦ 1:07.22 129.¦ 1.37 174.¦ 58.55 165.¦ 1:22.07 122.¦ 53.31 145.¦ 1:04.52 140.¦ ¦ ¦ 3:47.54 157.¦ 5:26.26 156.¦ 6:33.48 149.¦ 6:35.25 147.¦ 7:34.21 148.¦ 8:56.29 141.¦ 9:50.00 140.¦10:54.52 140.¦
141. Morales Sergio 1966 Cernier 10:56.07,2 3:59.29,1 (1687) diplôme foto V-H-Over 440. 11,430 ¦ 1:54.49 141.¦ 1:44.20 132.¦ 1:41.25 165.¦ 1:08.45 136.¦ 1.30 160.¦ 57.00 156.¦ 1:32.12 164.¦ 59.14 158.¦ 56.48 91.¦ ¦ ¦ 3:39.09 138.¦ 5:20.34 148.¦ 6:29.20 145.¦ 6:30.50 143.¦ 7:27.51 142.¦ 9:00.03 144.¦ 9:59.18 146.¦10:56.07 141.¦
142. Hänni Urs 1967 Biel/Bienne 10:58.34,7 4:01.56,6 (1602) diplôme foto V-H-Over 443. 11,388 ¦ 1:51.44 114.¦ 1:44.37 133.¦ 1:47.17 181.¦ 1:13.52 167.¦ 1.23 133.¦ 51.30 115.¦ 1:25.36 142.¦ 55.50 154.¦ 1:06.42 146.¦ ¦ ¦ 3:36.21 127.¦ 5:23.38 151.¦ 6:37.31 154.¦ 6:38.54 153.¦ 7:30.25 146.¦ 8:56.01 140.¦ 9:51.51 143.¦10:58.34 142.¦
143. Queloz Cédric 1973 Boudry 10:59.00,4 4:02.22,3 (1453) diplôme foto V-H-Over 445. 11,380 ¦ 1:55.25 144.¦ 1:50.38 165.¦ 1:34.52 145.¦ 1:16.52 183.¦ 1.31 164.¦ 57.11 157.¦ 1:24.20 136.¦ 49.28 121.¦ 1:08.40 150.¦ ¦ ¦ 3:46.04 152.¦ 5:20.56 149.¦ 6:37.48 156.¦ 6:39.20 154.¦ 7:36.31 149.¦ 9:00.51 145.¦ 9:50.19 141.¦10:59.00 143.¦
144. Pfrunder Guido 1966 Einsiedeln 10:59.19,5 4:02.41,4 (1736) diplôme foto V-H-Over 446. 11,375 ¦ 1:57.09 153.¦ 1:50.48 166.¦ 1:41.15 164.¦ 1:11.01 158.¦ 1.29 154.¦ 55.26 144.¦ 1:24.53 141.¦ 53.22 144.¦ 1:03.53 136.¦ RadnRoll ¦ ¦ 3:47.58 159.¦ 5:29.13 159.¦ 6:40.14 160.¦ 6:41.43 158.¦ 7:37.09 151.¦ 9:02.03 146.¦ 9:55.25 144.¦10:59.19 144.¦
145. Veyriere Eddie 1966 F-Bonneville 11:00.15,6 4:03.37,5 (1326) diplôme foto V-H-Over 448. 11,359 ¦ 1:51.19 110.¦ 1:43.36 126.¦ 1:36.52 153.¦ 1:02.20 91.¦ 1.13 79.¦ 56.37 151.¦ 1:45.35 172.¦ 58.05 155.¦ 1:04.34 138.¦ ¦ ¦ 3:34.56 121.¦ 5:11.48 134.¦ 6:14.09 127.¦ 6:15.22 126.¦ 7:12.00 124.¦ 8:57.35 142.¦ 9:55.40 145.¦11:00.15 145.¦
146. Metrailler Patrick 1974 Lens 11:02.44,0 4:06.05,9 (1407) diplôme foto V-H-Over 449. 11,316 ¦ 1:59.27 164.¦ 1:49.30 161.¦ 1:46.42 178.¦ 1:13.04 163.¦ 1.25 140.¦ 59.43 170.¦ 1:24.24 138.¦ 50.24 127.¦ 58.01 99.¦ ¦ ¦ 3:48.57 162.¦ 5:35.39 165.¦ 6:48.43 164.¦ 6:50.09 162.¦ 7:49.53 161.¦ 9:14.18 158.¦10:04.42 152.¦11:02.44 146.¦
147. Holton Pete 1970 GB-Sedbergh 11:05.04,0 4:08.25,9 (1517) diplôme foto V-H-Over 451. 11,277 ¦ 1:59.07 162.¦ 1:48.01 155.¦ 1:48.01 182.¦ 1:18.56 186.¦ 1.29 155.¦ 1:00.01 171.¦ 1:18.20 106.¦ 49.46 123.¦ 1:01.20 123.¦ Army Cycling Union ¦ ¦ 3:47.08 155.¦ 5:35.09 163.¦ 6:54.05 172.¦ 6:55.34 170.¦ 7:55.36 168.¦ 9:13.56 155.¦10:03.43 151.¦11:05.04 147.¦
148. Amstutz Dieter 1971 Auvernier 11:07.06,9 4:10.28,8 (1403) diplôme foto V-H-Over 453. 11,242 ¦ 2:00.48 168.¦ 1:52.46 171.¦ 1:34.40 143.¦ 1:12.14 162.¦ 1.31 166.¦ 58.23 161.¦ 1:33.37 166.¦ 47.01 102.¦ 1:06.02 144.¦ ¦ ¦ 3:53.35 169.¦ 5:28.15 157.¦ 6:40.30 161.¦ 6:42.02 159.¦ 7:40.25 154.¦ 9:14.03 156.¦10:01.04 148.¦11:07.06 148.¦
149. Santschy Laurent 1971 Mollens VD 11:10.11,7 4:13.33,6 (1417) diplôme foto V-H-Over 458. 11,190 ¦ 1:57.41 154.¦ 1:47.47 151.¦ 1:45.26 175.¦ 1:13.29 165.¦ 1.31 163.¦ 56.39 152.¦ 1:28.14 155.¦ 58.22 157.¦ 1:01.00 119.¦ ¦ ¦ 3:45.28 148.¦ 5:30.55 161.¦ 6:44.24 162.¦ 6:45.56 160.¦ 7:42.35 157.¦ 9:10.49 151.¦10:09.11 156.¦11:10.11 149.¦
150. Monnier Stéphane 1973 Val-d'Illiez 11:10.43,2 4:14.05,1 (1573) diplôme foto V-H-Over 460. 11,182 ¦ 1:51.25 111.¦ 1:46.57 145.¦ 1:35.39 150.¦ 1:10.32 153.¦ 1.40 179.¦ 58.20 160.¦ 1:37.59 168.¦ 48.49 116.¦ 1:19.19 168.¦ ¦ ¦ 3:38.22 135.¦ 5:14.01 137.¦ 6:24.34 139.¦ 6:26.14 138.¦ 7:24.35 141.¦ 9:02.34 147.¦ 9:51.24 142.¦11:10.43 150.¦
151. Pereira Augusto 1965 Tolochenaz 11:10.56,2 4:14.18,1 (1733) diplôme foto V-H-Over 461. 11,178 ¦ 1:58.42 158.¦ 1:47.13 147.¦ 1:39.53 162.¦ 1:13.51 166.¦ 1.28 153.¦ 59.36 169.¦ 1:28.18 156.¦ 58.11 156.¦ 1:03.39 135.¦ ¦ ¦ 3:45.55 150.¦ 5:25.49 155.¦ 6:39.41 159.¦ 6:41.10 156.¦ 7:40.46 156.¦ 9:09.05 150.¦10:07.16 153.¦11:10.56 151.¦
152. Pelka Roman 1971 Verbier 11:15.45,4 4:19.07,3 (1707) diplôme foto V-H-Over 472. 11,098 ¦ 2:10.55 194.¦ 1:56.59 184.¦ 1:34.08 141.¦ 1:11.34 161.¦ 1.20 117.¦ 53.33 132.¦ 1:22.20 124.¦ 51.36 132.¦ 1:13.15 159.¦ Bike Club Verbier ¦ ¦ 4:07.54 186.¦ 5:42.03 175.¦ 6:53.37 170.¦ 6:54.58 168.¦ 7:48.32 160.¦ 9:10.52 152.¦10:02.29 149.¦11:15.45 152.¦
153. Gremion Emmanuel 1967 Echarlens 11:17.26,1 4:20.48,0 (1626) diplôme foto V-H-Over 475. 11,071 ¦ 2:04.15 181.¦ 1:58.46 186.¦ 1:47.11 180.¦ 1:08.48 138.¦ 1.27 148.¦ 53.43 133.¦ 1:27.14 151.¦ 53.41 147.¦ 1:02.16 129.¦ Cycle shop ¦ ¦ 4:03.02 182.¦ 5:50.13 179.¦ 6:59.02 178.¦ 7:00.30 175.¦ 7:54.13 166.¦ 9:21.28 166.¦10:15.10 160.¦11:17.26 153.¦
154. Verdeijen Bart 1970 NL-Breda 11:20.31,5 4:23.53,4 (1613) diplôme foto V-H-Over 481. 11,020 ¦ 2:05.33 184.¦ 1:52.23 170.¦ 1:33.39 139.¦ 1:06.01 120.¦ 1.05 32.¦ 1:02.02 177.¦ 1:22.15 123.¦ 1:13.17 167.¦ 1:04.12 137.¦ ¦ ¦ 3:57.57 179.¦ 5:31.36 162.¦ 6:37.38 155.¦ 6:38.43 152.¦ 7:40.46 155.¦ 9:03.01 148.¦10:16.19 161.¦11:20.31 154.¦
155. Beer Roland 1968 Corgémont 11:21.09,8 4:24.31,7 (1367) diplôme foto V-H-Over 482. 11,010 ¦ 1:59.23 163.¦ 1:46.54 144.¦ 1:32.57 136.¦ 1:06.58 127.¦ 1.26 144.¦ 54.19 138.¦ 1:49.29 174.¦ 52.01 136.¦ 1:17.37 166.¦ ¦ ¦ 3:46.18 153.¦ 5:19.16 145.¦ 6:26.14 141.¦ 6:27.41 139.¦ 7:22.00 139.¦ 9:11.30 153.¦10:03.32 150.¦11:21.09 155.¦
156. Soguel Pierre 1968 La Sagne NE 11:22.28,2 4:25.50,1 (1452) diplôme foto V-H-Over 483. 10,989 ¦ 1:58.20 155.¦ 1:48.20 156.¦ 1:37.27 154.¦ 1:14.02 168.¦ 1.28 152.¦ 56.55 155.¦ 1:38.13 169.¦ 55.10 152.¦ 1:12.31 158.¦ ¦ ¦ 3:46.40 154.¦ 5:24.07 152.¦ 6:38.09 158.¦ 6:39.37 155.¦ 7:36.33 150.¦ 9:14.47 160.¦10:09.57 157.¦11:22.28 156.¦
157. Heinmöller Ingo 1967 D-Düsseldorf 11:23.22,0 4:26.43,9 (1647) diplôme foto V-H-Over 486. 10,975 ¦ 2:21.10 206.¦ 1:58.57 187.¦ 1:34.45 144.¦ 1:09.34 144.¦ 1.25 138.¦ 57.28 158.¦ 1:14.11 87.¦ 52.33 137.¦ 1:13.15 160.¦ ¦ ¦ 4:20.08 200.¦ 5:54.53 183.¦ 7:04.28 181.¦ 7:05.53 179.¦ 8:03.21 175.¦ 9:17.33 161.¦10:10.06 158.¦11:23.22 157.¦
158. Loriot Olivier 1968 Trélex 11:26.13,3 4:29.35,2 (1439) diplôme foto V-H-Over 490. 10,929 ¦ 2:02.22 173.¦ 1:54.51 180.¦ 1:43.36 170.¦ 1:11.26 160.¦ 1.32 168.¦ 1:01.17 176.¦ 1:29.06 158.¦ 1:06.01 163.¦ 55.59 87.¦ ¦ ¦ 3:57.13 178.¦ 5:40.49 173.¦ 6:52.15 168.¦ 6:53.47 166.¦ 7:55.05 167.¦ 9:24.12 172.¦10:30.13 167.¦11:26.13 158.¦
159. Dino Salvatore 1972 Effretikon 11:28.00,7 4:31.22,6 (1714) diplôme foto V-H-Over 492. 10,900 ¦ 2:03.54 180.¦ 1:50.22 163.¦ 1:43.16 168.¦ 1:15.09 175.¦ 1.37 175.¦ 56.36 150.¦ 1:29.59 162.¦ 59.51 160.¦ 1:07.13 149.¦ ¦ ¦ 3:54.17 172.¦ 5:37.33 169.¦ 6:52.43 169.¦ 6:54.21 167.¦ 7:50.57 162.¦ 9:20.56 165.¦10:20.47 163.¦11:28.00 159.¦
160. Kästli Bucher Remo 1974 Rehetobel 11:29.07,2 4:32.29,1 (1565) diplôme foto V-H-Over 493. 10,883 ¦ 2:17.00 200.¦ 1:47.56 154.¦ 1:32.02 135.¦ 1:14.51 173.¦ 1.37 176.¦ 52.37 124.¦ 1:28.14 154.¦ 53.34 146.¦ 1:21.11 170.¦ ¦ ¦ 4:04.57 184.¦ 5:37.00 167.¦ 6:51.51 166.¦ 6:53.29 165.¦ 7:46.06 158.¦ 9:14.20 159.¦10:07.55 154.¦11:29.07 160.¦
161. Halbeisen-Seger Michael 1974 St. Gallen 11:29.07,4 4:32.29,3 (1556) diplôme foto V-H-Over 494. 10,883 ¦ 2:17.03 201.¦ 1:48.43 157.¦ 1:31.17 129.¦ 1:14.50 172.¦ 1.34 172.¦ 52.38 125.¦ 1:28.08 153.¦ 45.57 93.¦ 1:28.53 173.¦ ¦ ¦ 4:05.47 185.¦ 5:37.04 168.¦ 6:51.54 167.¦ 6:53.29 164.¦ 7:46.08 159.¦ 9:14.16 157.¦10:00.13 147.¦11:29.07 161.¦
162. De Munter Alain 1966 B-Huldenberg 11:29.52,3 4:33.14,2 (78) diplôme foto V-H-Over 495. 10,871 ¦ 1:53.29 127.¦ 1:44.00 128.¦ 1:28.37 113.¦ 1:04.47 109.¦ 1.23 135.¦ 1:00.04 172.¦ 1:40.39 171.¦ 1:15.24 171.¦ 1:21.25 171.¦ mertens fiets ¦ ¦ 3:37.30 128.¦ 5:06.08 125.¦ 6:10.55 124.¦ 6:12.19 123.¦ 7:12.23 126.¦ 8:53.02 138.¦10:08.27 155.¦11:29.52 162.¦
163. Mettraux Olivier 1969 Baulmes 11:30.35,6 4:33.57,5 (1705) diplôme foto V-H-Over 497. 10,860 ¦ 2:05.54 185.¦ 2:04.51 194.¦ 1:46.00 177.¦ 59.28 55.¦ 1.22 129.¦ 56.29 149.¦ 1:26.29 149.¦ 1:07.02 164.¦ 1:02.55 131.¦ Team Oli's ¦ ¦ 4:10.46 191.¦ 5:56.47 185.¦ 6:56.15 174.¦ 6:57.38 173.¦ 7:54.07 165.¦ 9:20.37 164.¦10:27.40 166.¦11:30.35 163.¦
164. Faundez Antonio 1969 Nyon 11:31.56,2 4:35.18,1 (1398) diplôme foto V-H-Over 498. 10,839 ¦ 1:58.52 159.¦ 1:54.31 179.¦ 1:44.32 172.¦ 1:10.57 157.¦ 1.23 136.¦ 1:00.51 174.¦ 1:35.38 167.¦ 59.28 159.¦ 1:05.40 141.¦ ¦ ¦ 3:53.24 168.¦ 5:37.56 171.¦ 6:48.53 165.¦ 6:50.17 163.¦ 7:51.09 163.¦ 9:26.48 173.¦10:26.16 164.¦11:31.56 164.¦
165. Grütze Hagen 1972 D-Dresden 11:32.46,9 4:36.08,8 (1589) diplôme foto V-H-Over 501. 10,825 ¦ 2:17.36 204.¦ 1:58.20 185.¦ 1:39.44 161.¦ 1:09.08 140.¦ 1.27 146.¦ 56.25 148.¦ 1:25.44 143.¦ 1:05.34 162.¦ 58.45 109.¦ Sonntagsfahrer ¦ ¦ 4:15.56 195.¦ 5:55.40 184.¦ 7:04.49 182.¦ 7:06.17 180.¦ 8:02.42 174.¦ 9:28.27 174.¦10:34.01 170.¦11:32.46 165.¦
166. Wagner Lionel 1973 Chêne-Bourg 11:34.02,9 4:37.24,8 (1742) diplôme foto V-H-Over 502. 10,806 ¦ 2:03.22 176.¦ 1:54.55 181.¦ 1:49.26 184.¦ 1:10.39 156.¦ 1.31 165.¦ 59.29 168.¦ 1:23.43 130.¦ 1:09.52 166.¦ 1:01.02 120.¦ BMC Geneva Store ¦ ¦ 3:58.18 180.¦ 5:47.44 177.¦ 6:58.24 177.¦ 6:59.55 174.¦ 7:59.24 172.¦ 9:23.07 169.¦10:33.00 169.¦11:34.02 166.¦
167. Basibei Dimitri 1973 B-Casteau 11:37.00,5 4:40.22,4 (1668) diplôme foto V-H-Over 506. 10,760 ¦ 1:54.42 140.¦ 1:51.18 167.¦ 1:38.43 156.¦ 1:13.06 164.¦ 3.24 187.¦ 58.32 162.¦ 1:24.44 140.¦ 1:13.33 169.¦ 1:18.54 167.¦ ¦ ¦ 3:46.01 151.¦ 5:24.45 154.¦ 6:37.51 157.¦ 6:41.15 157.¦ 7:39.47 153.¦ 9:04.32 149.¦10:18.06 162.¦11:37.00 167.¦
168. Drybooms Jan 1969 B-Herentals 11:39.18,8 4:42.40,7 (1470) diplôme foto V-H-Over 508. 10,724 ¦ 2:03.50 179.¦ 2:05.02 195.¦ 1:49.52 186.¦ 1:06.39 126.¦ 1.38 177.¦ 51.29 114.¦ 1:15.08 92.¦ 1:13.23 168.¦ 1:12.13 157.¦ ¦ ¦ 4:08.53 189.¦ 5:58.45 186.¦ 7:05.25 183.¦ 7:07.03 181.¦ 7:58.33 171.¦ 9:13.41 154.¦10:27.04 165.¦11:39.18 168.¦
169. Agnéus Ulf 1967 Belmont-sur-Lausanne 11:39.49,3 4:43.11,2 (1483) diplôme foto V-H-Over 509. 10,717 ¦ 1:58.42 157.¦ 1:54.57 182.¦ 1:43.17 169.¦ 1:19.20 188.¦ 1.19 114.¦ 59.00 166.¦ 1:23.10 129.¦ 54.03 148.¦ 1:25.56 172.¦ ¦ ¦ 3:53.39 170.¦ 5:36.57 166.¦ 6:56.17 175.¦ 6:57.37 172.¦ 7:56.38 170.¦ 9:19.49 163.¦10:13.52 159.¦11:39.49 169.¦
170. Martignano Stéphane 1965 Genthod 11:48.35,4 4:51.57,3 (1701) diplôme foto V-H-Over 512. 10,584 ¦ 2:03.41 178.¦ 1:53.19 176.¦ 1:44.12 171.¦ 1:14.07 169.¦ 1.30 162.¦ 59.15 167.¦ 1:26.08 145.¦ 1:15.13 170.¦ 1:11.07 155.¦ Genevatriathlon ¦ ¦ 3:57.00 177.¦ 5:41.13 174.¦ 6:55.20 173.¦ 6:56.51 171.¦ 7:56.06 169.¦ 9:22.15 167.¦10:37.28 171.¦11:48.35 170.¦
171. Pieters Bart 1974 B-Koksijde 11:48.45,1 4:52.07,0 (1546) diplôme foto V-H-Over 513. 10,581 ¦ 1:59.00 161.¦ 1:54.16 178.¦ 1:46.47 179.¦ 1:17.50 185.¦ 4.04 188.¦ 58.48 164.¦ 1:22.47 126.¦ 1:07.58 165.¦ 1:17.10 165.¦ Neverest MTB-team ¦ ¦ 3:53.16 167.¦ 5:40.04 172.¦ 6:57.55 176.¦ 7:01.59 176.¦ 8:00.48 173.¦ 9:23.36 170.¦10:31.34 168.¦11:48.45 171.¦
172. Pittalis Jean 1966 B-Walcourt 11:58.21,4 5:01.43,3 (1400) diplôme foto V-H-Over 519. 10,440 ¦ 1:56.48 151.¦ 1:52.01 169.¦ 1:59.54 200.¦ 1:20.19 190.¦ 1.34 170.¦ 56.10 146.¦ 1:16.59 102.¦ 1:25.11 172.¦ 1:09.21 151.¦ La roue libre Fraire ¦ ¦ 3:48.50 161.¦ 5:48.44 178.¦ 7:09.04 185.¦ 7:10.38 183.¦ 8:06.48 178.¦ 9:23.48 171.¦10:48.59 172.¦11:58.21 172.¦
173. Briguet Pierrot 1971 Flanthey 12:04.32,9 5:07.54,8 (1459) diplôme foto V-H-Over 524. 10,351 ¦ 1:55.23 142.¦ 1:53.01 172.¦ 1:49.20 183.¦ 1:15.52 177.¦ 1.22 131.¦ 56.42 153.¦ 1:30.49 163.¦ 1:26.31 173.¦ 1:15.28 162.¦ ¦ ¦ 3:48.25 160.¦ 5:37.45 170.¦ 6:53.38 171.¦ 6:55.00 169.¦ 7:51.43 164.¦ 9:22.33 168.¦10:49.04 173.¦12:04.32 173.¦
174. Tricot Lionel 1972 Lausanne 9:19.06,4 La Vieille (1768) foto V-H-Over 527. --- ¦ 2:00.50 170.¦ 1:53.07 173.¦ 1:41.26 166.¦ 1:10.19 151.¦ 1.27 149.¦ 52.24 121.¦ 1:39.29 170.¦ ---- ----¦ ---- ----¦ ¦ ¦ 3:53.58 171.¦ 5:35.24 164.¦ 6:45.44 163.¦ 6:47.12 161.¦ 7:39.36 152.¦ 9:19.06 162.¦ ---- ----¦ ---- ----¦
175. Detroz Gaetan 1969 B-Court-Saint-Etienne 10:03.04,3 La Vieille (1735) foto V-H-Over 533. --- ¦ 2:00.07 165.¦ 1:54.12 177.¦ 1:56.17 196.¦ 1:10.38 155.¦ 1.32 167.¦ 1:03.40 178.¦ 1:56.36 175.¦ ---- ----¦ ---- ----¦ ¦ ¦ 3:54.19 173.¦ 5:50.37 180.¦ 7:01.15 179.¦ 7:02.47 177.¦ 8:06.28 177.¦10:03.04 175.¦ ---- ----¦ ---- ----¦
176. Juan Yves Alain 1971 Couvet 5:52.53,5 Eison (96) foto V-H-Over 535. --- ¦ 1:32.12 8.¦ 1:22.37 13.¦ 1:11.34 22.¦ 55.00 25.¦ 1.09 59.¦ 50.19 100.¦ ---- ----¦ ---- ----¦ ---- ----¦ Team GIANT Neuchâtel ¦ ¦ 2:54.50 9.¦ 4:06.24 12.¦ 5:01.24 12.¦ 5:02.34 12.¦ 5:52.53 20.¦ ---- ----¦ ---- ----¦ ---- ----¦
177. Mallon Tim 1971 Genève 6:32.59,2 Eison (1662) foto V-H-Over 536. --- ¦ 1:38.27 36.¦ 1:32.37 63.¦ 1:31.57 133.¦ 58.06 43.¦ 1.15 91.¦ 50.34 103.¦ ---- ----¦ ---- ----¦ ---- ----¦ ¦ ¦ 3:11.05 50.¦ 4:43.02 76.¦ 5:41.09 70.¦ 5:42.24 69.¦ 6:32.59 72.¦ ---- ----¦ ---- ----¦ ---- ----¦
178. Bockstael Floris 1974 Savièse 8:04.32,5 Eison (1456) foto V-H-Over 540. --- ¦ 2:02.52 174.¦ 1:53.11 174.¦ 1:49.33 185.¦ 1:16.32 180.¦ 1.25 141.¦ 1:00.56 175.¦ ---- ----¦ ---- ----¦ ---- ----¦ ¦ ¦ 3:56.04 175.¦ 5:45.38 176.¦ 7:02.10 180.¦ 7:03.36 178.¦ 8:04.32 176.¦ ---- ----¦ ---- ----¦ ---- ----¦
179. Recour Johan 1965 B-Koksijde 8:26.50,6 Eison (1537) foto V-H-Over 545. --- ¦ 2:10.18 193.¦ 2:05.47 198.¦ 1:50.32 188.¦ 1:14.24 171.¦ 1.16 96.¦ 1:04.32 179.¦ ---- ----¦ ---- ----¦ ---- ----¦ ¦ ¦ 4:16.05 196.¦ 6:06.37 193.¦ 7:21.02 189.¦ 7:22.18 185.¦ 8:26.50 179.¦ ---- ----¦ ---- ----¦ ---- ----¦
180. Gay Pierre-Yves 1965 Levron 8:29.39,2 Eison (1646) foto V-H-Over 547. --- ¦ 2:12.27 196.¦ 2:03.02 190.¦ 1:44.43 173.¦ 1:20.27 191.¦ 1.42 182.¦ 1:07.16 180.¦ ---- ----¦ ---- ----¦ ---- ----¦ ¦ ¦ 4:15.29 194.¦ 6:00.13 188.¦ 7:20.40 187.¦ 7:22.22 186.¦ 8:29.39 180.¦ ---- ----¦ ---- ----¦ ---- ----¦
181. Noirjean Frédéric 1969 Sugiez 8:31.39,3 Eison (1671) foto V-H-Over 549. --- ¦ 2:00.21 166.¦ 2:03.06 191.¦ 1:55.38 194.¦ 1:21.49 193.¦ 1.36 173.¦ 1:09.06 181.¦ ---- ----¦ ---- ----¦ ---- ----¦ ¦ ¦ 4:03.28 183.¦ 5:59.06 187.¦ 7:20.56 188.¦ 7:22.32 187.¦ 8:31.39 181.¦ ---- ----¦ ---- ----¦ ---- ----¦
182. Dvorak Lubos 1965 CZ-Liberec 8:35.08,7 Eison (1527) foto V-H-Over 551. --- ¦ 2:02.57 175.¦ 1:55.59 183.¦ 1:52.05 189.¦ 1:22.50 194.¦ 2.36 184.¦ 1:18.40 182.¦ ---- ----¦ ---- ----¦ ---- ----¦ ¦ ¦ 3:58.56 181.¦ 5:51.01 181.¦ 7:13.51 186.¦ 7:16.27 184.¦ 8:35.08 182.¦ ---- ----¦ ---- ----¦ ---- ----¦
183. Günter Patrick 1974 Thun 6:08.16,5 Evolène fin (1759) foto V-H-Over 556. --- ¦ 1:44.50 70.¦ 1:36.00 82.¦ 1:35.15 149.¦ 1:09.15 141.¦ 2.55 186.¦ ---- ----¦ ---- ----¦ ---- ----¦ ---- ----¦ rennshop.ch ¦ ¦ 3:20.50 73.¦ 4:56.05 99.¦ 6:05.21 111.¦ 6:08.16 112.¦ ---- ----¦ ---- ----¦ ---- ----¦ ---- ----¦
184. Zürcher Rolf 1968 Frutigen 6:28.10,5 Evolène fin (1523) foto V-H-Over 557. --- ¦ 1:53.53 133.¦ 1:46.40 141.¦ 1:38.48 158.¦ 1:07.27 130.¦ 1.20 119.¦ ---- ----¦ ---- ----¦ ---- ----¦ ---- ----¦ www.bike1a.ch ¦ ¦ 3:40.33 141.¦ 5:19.22 146.¦ 6:26.49 142.¦ 6:28.10 140.¦ ---- ----¦ ---- ----¦ ---- ----¦ ---- ----¦
185. Chesneau Jean François 1972 F-Noisy le Roi 6:33.55,0 Evolène fin (1507) foto V-H-Over 558. --- ¦ 1:52.39 121.¦ 1:45.00 134.¦ 1:38.48 159.¦ 1:15.46 176.¦ 1.39 178.¦ ---- ----¦ ---- ----¦ ---- ----¦ ---- ----¦ ¦ ¦ 3:37.39 130.¦ 5:16.28 140.¦ 6:32.15 148.¦ 6:33.55 146.¦ ---- ----¦ ---- ----¦ ---- ----¦ ---- ----¦
186. Conus Marcel 1965 St-Barthélemy VD 6:38.09,0 Evolène fin (1366) foto V-H-Over 559. --- ¦ 1:58.57 160.¦ 1:48.58 158.¦ 1:40.42 163.¦ 1:07.37 131.¦ 1.53 183.¦ ---- ----¦ ---- ----¦ ---- ----¦ ---- ----¦ VC Echallens ¦ ¦ 3:47.55 158.¦ 5:28.37 158.¦ 6:36.15 153.¦ 6:38.09 151.¦ ---- ----¦ ---- ----¦ ---- ----¦ ---- ----¦
187. Ornst Tomas 1967 CZ-Cesky Dub 7:09.50,2 Evolène fin (1415) foto V-H-Over 563. --- ¦ 2:06.11 186.¦ 1:50.25 164.¦ 1:54.46 191.¦ 1:16.45 181.¦ 1.41 181.¦ ---- ----¦ ---- ----¦ ---- ----¦ ---- ----¦ Vylet Liberec ¦ ¦ 3:56.37 176.¦ 5:51.23 182.¦ 7:08.09 184.¦ 7:09.50 182.¦ ---- ----¦ ---- ----¦ ---- ----¦ ---- ----¦
188. Van der Weerdt Romke 1970 NL-Amsterdam 7:22.48,5 Evolène fin (1474) foto V-H-Over 566. --- ¦ 2:11.19 195.¦ 2:05.45 197.¦ 1:45.04 174.¦ 1:19.16 187.¦ 1.22 132.¦ ---- ----¦ ---- ----¦ ---- ----¦ ---- ----¦ ¦ ¦ 4:17.04 197.¦ 6:02.09 189.¦ 7:21.25 190.¦ 7:22.48 188.¦ ---- ----¦ ---- ----¦ ---- ----¦ ---- ----¦
189. Schöpfer Felix 1973 Zürich 5:20.43,8 Evolène sta (1293) foto V-H-Over 568. --- ¦ 1:37.38 31.¦ 1:24.56 21.¦ 1:18.41 61.¦ 59.27 54.¦ ---- ----¦ ---- ----¦ ---- ----¦ ---- ----¦ ---- ----¦ ¦ ¦ 3:02.34 23.¦ 4:21.16 33.¦ 5:20.43 33.¦ ---- ----¦ ---- ----¦ ---- ----¦ ---- ----¦ ---- ----¦
190. Pugin Stephane 1974 Echarlens 6:23.00,9 Evolène sta (1664) foto V-H-Over 571. --- ¦ 1:50.00 101.¦ 1:38.13 94.¦ 1:39.41 160.¦ 1:15.05 174.¦ ---- ----¦ ---- ----¦ ---- ----¦ ---- ----¦ ---- ----¦ ¦ ¦ 3:28.14 98.¦ 5:07.55 127.¦ 6:23.00 138.¦ ---- ----¦ ---- ----¦ ---- ----¦ ---- ----¦ ---- ----¦
191. Kruwialis Gael 1973 B-Uccle 7:32.59,9 Evolène sta (1462) foto V-H-Over 574. --- ¦ 2:06.31 187.¦ 2:11.41 205.¦ 1:57.59 199.¦ 1:16.47 182.¦ ---- ----¦ ---- ----¦ ---- ----¦ ---- ----¦ ---- ----¦ ¦ ¦ 4:18.12 199.¦ 6:16.12 194.¦ 7:32.59 191.¦ ---- ----¦ ---- ----¦ ---- ----¦ ---- ----¦ ---- ----¦
192. Penzien Jochen 1971 Visp 7:36.02,6 Evolène sta (1478) foto V-H-Over 576. --- ¦ 2:17.20 203.¦ 2:08.50 201.¦ 1:50.15 187.¦ 1:19.35 189.¦ ---- ----¦ ---- ----¦ ---- ----¦ ---- ----¦ ---- ----¦ ¦ ¦ 4:26.11 202.¦ 6:16.27 195.¦ 7:36.02 192.¦ ---- ----¦ ---- ----¦ ---- ----¦ ---- ----¦ ---- ----¦
193. Gan Tji-Djin 1972 NL-Amstelveen 7:36.21,0 Evolène sta (1494) foto V-H-Over 577. --- ¦ 2:04.32 182.¦ 2:05.14 196.¦ 1:56.33 197.¦ 1:30.00 199.¦ ---- ----¦ ---- ----¦ ---- ----¦ ---- ----¦ ---- ----¦ ¦ ¦ 4:09.47 190.¦ 6:06.20 192.¦ 7:36.21 193.¦ ---- ----¦ ---- ----¦ ---- ----¦ ---- ----¦ ---- ----¦
194. Llodra Jaime 1972 Bern 7:36.40,1 Evolène sta (1666) foto V-H-Over 578. --- ¦ 2:10.04 192.¦ 2:07.09 200.¦ 2:03.03 201.¦ 1:16.23 179.¦ ---- ----¦ ---- ----¦ ---- ----¦ ---- ----¦ ---- ----¦ ¦ ¦ 4:17.13 198.¦ 6:20.16 197.¦ 7:36.40 194.¦ ---- ----¦ ---- ----¦ ---- ----¦ ---- ----¦ ---- ----¦
195. Henny Olivier 1965 Treycovagnes 7:42.42,1 Evolène sta (1706) foto V-H-Over 579. --- ¦ 2:06.41 188.¦ 2:04.27 192.¦ 1:53.09 190.¦ 1:38.23 202.¦ ---- ----¦ ---- ----¦ ---- ----¦ ---- ----¦ ---- ----¦ Team Oli's ¦ ¦ 4:11.08 192.¦ 6:04.18 190.¦ 7:42.42 195.¦ ---- ----¦ ---- ----¦ ---- ----¦ ---- ----¦ ---- ----¦
196. Cupido John 1966 NL-Apeldoorn 7:43.06,1 Evolène sta (1568) foto V-H-Over 580. --- ¦ 2:14.40 199.¦ 2:15.10 206.¦ 1:55.33 193.¦ 1:17.41 184.¦ ---- ----¦ ---- ----¦ ---- ----¦ ---- ----¦ ---- ----¦ ¦ ¦ 4:29.51 205.¦ 6:25.24 201.¦ 7:43.06 196.¦ ---- ----¦ ---- ----¦ ---- ----¦ ---- ----¦ ---- ----¦
197. Viane Peter 1967 B-Koksijde 7:43.10,2 Evolène sta (1550) foto V-H-Over 582. --- ¦ 2:17.16 202.¦ 2:09.29 204.¦ 1:55.13 192.¦ 1:21.11 192.¦ ---- ----¦ ---- ----¦ ---- ----¦ ---- ----¦ ---- ----¦ Neverest MTB-team ¦ ¦ 4:26.45 203.¦ 6:21.59 199.¦ 7:43.10 197.¦ ---- ----¦ ---- ----¦ ---- ----¦ ---- ----¦ ---- ----¦
198. Destraz Hervé 1971 Neyruz-sur-Moudon 7:48.52,9 Evolène sta (1386) foto V-H-Over 584. --- ¦ 2:09.01 191.¦ 1:59.26 188.¦ 1:57.15 198.¦ 1:43.09 203.¦ ---- ----¦ ---- ----¦ ---- ----¦ ---- ----¦ ---- ----¦ Footing Club Lausanne ¦ ¦ 4:08.27 187.¦ 6:05.43 191.¦ 7:48.52 198.¦ ---- ----¦ ---- ----¦ ---- ----¦ ---- ----¦ ---- ----¦
199. Oloughlin Martin 1974 GB-Cheltenham 7:49.22,7 Evolène sta (1514) foto V-H-Over 585. --- ¦ 2:27.35 210.¦ 2:04.50 193.¦ 1:45.56 176.¦ 1:30.59 200.¦ ---- ----¦ ---- ----¦ ---- ----¦ ---- ----¦ ---- ----¦ ¦ ¦ 4:32.26 206.¦ 6:18.23 196.¦ 7:49.22 199.¦ ---- ----¦ ---- ----¦ ---- ----¦ ---- ----¦ ---- ----¦
200. Greve Leo 1969 GB-London 7:50.40,5 Evolène sta (1481) foto V-H-Over 587. --- ¦ 2:19.56 205.¦ 2:08.59 202.¦ 1:55.48 195.¦ 1:25.56 197.¦ ---- ----¦ ---- ----¦ ---- ----¦ ---- ----¦ ---- ----¦ ¦ ¦ 4:28.55 204.¦ 6:24.44 200.¦ 7:50.40 200.¦ ---- ----¦ ---- ----¦ ---- ----¦ ---- ----¦ ---- ----¦
201. Fedun Shawn 1967 Mont-sur-Rolle 7:51.31,1 Evolène sta (1581) foto V-H-Over 590. --- ¦ 2:14.09 198.¦ 2:09.01 203.¦ 2:04.26 202.¦ 1:23.54 196.¦ ---- ----¦ ---- ----¦ ---- ----¦ ---- ----¦ ---- ----¦ La Côte Wheelers ¦ ¦ 4:23.10 201.¦ 6:27.36 203.¦ 7:51.31 201.¦ ---- ----¦ ---- ----¦ ---- ----¦ ---- ----¦ ---- ----¦
202. Palmer Mark 1965 GB-Leatherhead 7:53.46,9 Evolène sta (54) foto V-H-Over 592. --- ¦ 2:27.47 211.¦ 2:16.18 208.¦ 1:43.07 167.¦ 1:26.33 198.¦ ---- ----¦ ---- ----¦ ---- ----¦ ---- ----¦ ---- ----¦ ¦ ¦ 4:44.06 209.¦ 6:27.13 202.¦ 7:53.46 202.¦ ---- ----¦ ---- ----¦ ---- ----¦ ---- ----¦ ---- ----¦
203. Pascale Timmy 1972 Neuchâtel 7:55.25,9 Evolène sta (1489) foto V-H-Over 593. --- ¦ 2:08.04 189.¦ 2:07.08 199.¦ 2:05.28 203.¦ 1:34.44 201.¦ ---- ----¦ ---- ----¦ ---- ----¦ ---- ----¦ ---- ----¦ ¦ ¦ 4:15.12 193.¦ 6:20.41 198.¦ 7:55.25 203.¦ ---- ----¦ ---- ----¦ ---- ----¦ ---- ----¦ ---- ----¦
204. Giroud Eric 1965 Savièse 3:09.55,4 Hérémence (1236) foto V-H-Over 600. --- ¦ 1:40.36 48.¦ 1:29.19 44.¦ ---- ----¦ ---- ----¦ ---- ----¦ ---- ----¦ ---- ----¦ ---- ----¦ ---- ----¦ Valais-découverte ¦ ¦ 3:09.55 43.¦ ---- ----¦ ---- ----¦ ---- ----¦ ---- ----¦ ---- ----¦ ---- ----¦ ---- ----¦
205. Matter Paddy 1972 Alpnach Dorf 3:22.54,9 Hérémence (1258) foto V-H-Over 602. --- ¦ 1:48.54 95.¦ 1:34.00 70.¦ ---- ----¦ ---- ----¦ ---- ----¦ ---- ----¦ ---- ----¦ ---- ----¦ ---- ----¦ fusion-world.ch ¦ ¦ 3:22.54 85.¦ ---- ----¦ ---- ----¦ ---- ----¦ ---- ----¦ ---- ----¦ ---- ----¦ ---- ----¦
206. Courbat Martial 1972 Alle 3:35.27,6 Hérémence (1358) foto V-H-Over 603. --- ¦ 1:49.14 96.¦ 1:46.12 139.¦ ---- ----¦ ---- ----¦ ---- ----¦ ---- ----¦ ---- ----¦ ---- ----¦ ---- ----¦ FSG ALLE ¦ ¦ 3:35.27 124.¦ ---- ----¦ ---- ----¦ ---- ----¦ ---- ----¦ ---- ----¦ ---- ----¦ ---- ----¦
207. Vanmansart Marc 1970 B-Arlon 4:08.51,5 Hérémence (1441) foto V-H-Over 605. --- ¦ 2:08.57 190.¦ 1:59.54 189.¦ ---- ----¦ ---- ----¦ ---- ----¦ ---- ----¦ ---- ----¦ ---- ----¦ ---- ----¦ ¦ ¦ 4:08.51 188.¦ ---- ----¦ ---- ----¦ ---- ----¦ ---- ----¦ ---- ----¦ ---- ----¦ ---- ----¦
208. Van der Valk Peter 1968 NL-Doetinchem 4:38.02,1 Hérémence (1476) foto V-H-Over 606. --- ¦ 2:22.49 209.¦ 2:15.12 207.¦ ---- ----¦ ---- ----¦ ---- ----¦ ---- ----¦ ---- ----¦ ---- ----¦ ---- ----¦ De Pedaleur ¦ ¦ 4:38.02 207.¦ ---- ----¦ ---- ----¦ ---- ----¦ ---- ----¦ ---- ----¦ ---- ----¦ ---- ----¦
209. Larsen Kenn O 1967 DK-Roskilde 4:43.16,7 Hérémence (1544) foto V-H-Over 607. --- ¦ 2:22.48 208.¦ 2:20.27 209.¦ ---- ----¦ ---- ----¦ ---- ----¦ ---- ----¦ ---- ----¦ ---- ----¦ ---- ----¦ RMK ¦ ¦ 4:43.16 208.¦ ---- ----¦ ---- ----¦ ---- ----¦ ---- ----¦ ---- ----¦ ---- ----¦ ---- ----¦
210. Bogard Arnolt 1973 Satigny 4:46.52,8 Hérémence (1766) foto V-H-Over 608. --- ¦ 2:21.55 207.¦ 2:24.56 210.¦ ---- ----¦ ---- ----¦ ---- ----¦ ---- ----¦ ---- ----¦ ---- ----¦ ---- ----¦ ¦ ¦ 4:46.52 210.¦ ---- ----¦ ---- ----¦ ---- ----¦ ---- ----¦ ---- ----¦ ---- ----¦ ---- ----¦
211. Farrugia Stephane 1971 Noville 4:56.03,3 Hérémence (1643) foto V-H-Over 610. --- ¦ 2:13.53 197.¦ 2:42.10 211.¦ ---- ----¦ ---- ----¦ ---- ----¦ ---- ----¦ ---- ----¦ ---- ----¦ ---- ----¦ ¦ ¦ 4:56.03 211.¦ ---- ----¦ ---- ----¦ ---- ----¦ ---- ----¦ ---- ----¦ ---- ----¦ ---- ----¦

Results, images and data are provided for personal use only. Commercial use, redistribution in whole or part, and/or reprinting is prohibited.